<?xml version="1.0" encoding="UTF-8" standalone="no" ?>
<gpx xmlns="http://www.topografix.com/GPX/1/1" xmlns:xsi="http://www.w3.org/2001/XMLSchema-instance" xsi:schemaLocation="http://www.topografix.com/GPX/1/1 http://www.topografix.com/GPX/1/1/gpx.xsd" version="1.1" creator="VisuGPX - https://www.visugpx.com">
  <metadata>
    <name>Tarabeau + sagnes</name>
  </metadata>
  <trk>
    <name><![CDATA[Tarabeau + sagnes_1]]></name>
    <extensions>
      <line xmlns="http://www.topografix.com/GPX/gpx_style/0/2">
        <color>0000FF</color>
        <width>4</width>
      </line>
    </extensions>
    <trkseg>
      <trkpt lat="44.4206" lon="6.73759">
        <ele>1219.9</ele>
        <time>2021-06-25T15:25:35Z</time>
      </trkpt>
      <trkpt lat="44.42079" lon="6.73763">
        <ele>1220.2</ele>
        <time>2021-06-25T15:25:39Z</time>
      </trkpt>
      <trkpt lat="44.42097" lon="6.73764">
        <ele>1220.5</ele>
        <time>2021-06-25T15:25:43Z</time>
      </trkpt>
      <trkpt lat="44.42115" lon="6.73765">
        <ele>1220.7</ele>
        <time>2021-06-25T15:25:47Z</time>
      </trkpt>
      <trkpt lat="44.42131" lon="6.7377">
        <ele>1220.9</ele>
        <time>2021-06-25T15:25:51Z</time>
      </trkpt>
      <trkpt lat="44.42143" lon="6.73786">
        <ele>1221.3</ele>
        <time>2021-06-25T15:25:55Z</time>
      </trkpt>
      <trkpt lat="44.42154" lon="6.73806">
        <ele>1221.6</ele>
        <time>2021-06-25T15:25:59Z</time>
      </trkpt>
      <trkpt lat="44.42164" lon="6.73821">
        <ele>1221.8</ele>
        <time>2021-06-25T15:26:03Z</time>
      </trkpt>
      <trkpt lat="44.42179" lon="6.7383">
        <ele>1222.3</ele>
        <time>2021-06-25T15:26:07Z</time>
      </trkpt>
      <trkpt lat="44.42196" lon="6.73829">
        <ele>1222.7</ele>
        <time>2021-06-25T15:26:11Z</time>
      </trkpt>
      <trkpt lat="44.42213" lon="6.73823">
        <ele>1223.3</ele>
        <time>2021-06-25T15:26:15Z</time>
      </trkpt>
      <trkpt lat="44.42227" lon="6.73813">
        <ele>1223.9</ele>
        <time>2021-06-25T15:26:19Z</time>
      </trkpt>
      <trkpt lat="44.42244" lon="6.73807">
        <ele>1224.7</ele>
        <time>2021-06-25T15:26:23Z</time>
      </trkpt>
      <trkpt lat="44.4226" lon="6.738">
        <ele>1224.8</ele>
        <time>2021-06-25T15:26:27Z</time>
      </trkpt>
      <trkpt lat="44.42276" lon="6.73798">
        <ele>1224.3</ele>
        <time>2021-06-25T15:26:31Z</time>
      </trkpt>
      <trkpt lat="44.42292" lon="6.73799">
        <ele>1223.7</ele>
        <time>2021-06-25T15:26:35Z</time>
      </trkpt>
      <trkpt lat="44.42307" lon="6.738">
        <ele>1223.1</ele>
        <time>2021-06-25T15:26:39Z</time>
      </trkpt>
      <trkpt lat="44.42321" lon="6.73798">
        <ele>1222.7</ele>
        <time>2021-06-25T15:26:43Z</time>
      </trkpt>
      <trkpt lat="44.42329" lon="6.73791">
        <ele>1222.7</ele>
        <time>2021-06-25T15:26:47Z</time>
      </trkpt>
      <trkpt lat="44.42331" lon="6.73776">
        <ele>1223.1</ele>
        <time>2021-06-25T15:26:51Z</time>
      </trkpt>
      <trkpt lat="44.42332" lon="6.73758">
        <ele>1223.8</ele>
        <time>2021-06-25T15:26:55Z</time>
      </trkpt>
      <trkpt lat="44.42333" lon="6.73744">
        <ele>1224.4</ele>
        <time>2021-06-25T15:26:59Z</time>
      </trkpt>
      <trkpt lat="44.42335" lon="6.73736">
        <ele>1225.1</ele>
        <time>2021-06-25T15:27:03Z</time>
      </trkpt>
      <trkpt lat="44.42342" lon="6.73723">
        <ele>1226.3</ele>
        <time>2021-06-25T15:27:07Z</time>
      </trkpt>
      <trkpt lat="44.4235" lon="6.73707">
        <ele>1227.6</ele>
        <time>2021-06-25T15:27:11Z</time>
      </trkpt>
      <trkpt lat="44.42361" lon="6.73696">
        <ele>1228.5</ele>
        <time>2021-06-25T15:27:15Z</time>
      </trkpt>
      <trkpt lat="44.42375" lon="6.7369">
        <ele>1229</ele>
        <time>2021-06-25T15:27:19Z</time>
      </trkpt>
      <trkpt lat="44.42386" lon="6.73684">
        <ele>1229.4</ele>
        <time>2021-06-25T15:27:23Z</time>
      </trkpt>
      <trkpt lat="44.42397" lon="6.73677">
        <ele>1229.7</ele>
        <time>2021-06-25T15:27:27Z</time>
      </trkpt>
      <trkpt lat="44.42409" lon="6.7367">
        <ele>1229.9</ele>
        <time>2021-06-25T15:27:31Z</time>
      </trkpt>
      <trkpt lat="44.42421" lon="6.73667">
        <ele>1230.2</ele>
        <time>2021-06-25T15:27:35Z</time>
      </trkpt>
      <trkpt lat="44.42432" lon="6.7366">
        <ele>1230.7</ele>
        <time>2021-06-25T15:27:39Z</time>
      </trkpt>
      <trkpt lat="44.42441" lon="6.73651">
        <ele>1231.3</ele>
        <time>2021-06-25T15:27:43Z</time>
      </trkpt>
      <trkpt lat="44.42449" lon="6.73642">
        <ele>1231.7</ele>
        <time>2021-06-25T15:27:47Z</time>
      </trkpt>
      <trkpt lat="44.42455" lon="6.7363">
        <ele>1232.1</ele>
        <time>2021-06-25T15:27:51Z</time>
      </trkpt>
      <trkpt lat="44.4246" lon="6.73619">
        <ele>1232.4</ele>
        <time>2021-06-25T15:27:55Z</time>
      </trkpt>
      <trkpt lat="44.42467" lon="6.73609">
        <ele>1232.6</ele>
        <time>2021-06-25T15:27:59Z</time>
      </trkpt>
      <trkpt lat="44.42473" lon="6.73603">
        <ele>1232.8</ele>
        <time>2021-06-25T15:28:03Z</time>
      </trkpt>
      <trkpt lat="44.42478" lon="6.73591">
        <ele>1232.9</ele>
        <time>2021-06-25T15:28:07Z</time>
      </trkpt>
      <trkpt lat="44.42484" lon="6.73584">
        <ele>1233</ele>
        <time>2021-06-25T15:28:11Z</time>
      </trkpt>
      <trkpt lat="44.4249" lon="6.73574">
        <ele>1233.7</ele>
        <time>2021-06-25T15:28:15Z</time>
      </trkpt>
      <trkpt lat="44.42497" lon="6.73566">
        <ele>1234.2</ele>
        <time>2021-06-25T15:28:19Z</time>
      </trkpt>
      <trkpt lat="44.42505" lon="6.73561">
        <ele>1235.3</ele>
        <time>2021-06-25T15:28:23Z</time>
      </trkpt>
      <trkpt lat="44.42513" lon="6.73559">
        <ele>1236.5</ele>
        <time>2021-06-25T15:28:27Z</time>
      </trkpt>
      <trkpt lat="44.4252" lon="6.73551">
        <ele>1237.9</ele>
        <time>2021-06-25T15:28:31Z</time>
      </trkpt>
      <trkpt lat="44.42525" lon="6.73545">
        <ele>1238.9</ele>
        <time>2021-06-25T15:28:35Z</time>
      </trkpt>
      <trkpt lat="44.4253" lon="6.73538">
        <ele>1240</ele>
        <time>2021-06-25T15:28:39Z</time>
      </trkpt>
      <trkpt lat="44.42536" lon="6.73535">
        <ele>1240.9</ele>
        <time>2021-06-25T15:28:43Z</time>
      </trkpt>
      <trkpt lat="44.42543" lon="6.73533">
        <ele>1241.9</ele>
        <time>2021-06-25T15:28:47Z</time>
      </trkpt>
      <trkpt lat="44.42551" lon="6.73531">
        <ele>1243</ele>
        <time>2021-06-25T15:28:51Z</time>
      </trkpt>
      <trkpt lat="44.42556" lon="6.73526">
        <ele>1243.8</ele>
        <time>2021-06-25T15:28:55Z</time>
      </trkpt>
      <trkpt lat="44.42563" lon="6.73522">
        <ele>1244.8</ele>
        <time>2021-06-25T15:28:59Z</time>
      </trkpt>
      <trkpt lat="44.42571" lon="6.73519">
        <ele>1245.9</ele>
        <time>2021-06-25T15:29:03Z</time>
      </trkpt>
      <trkpt lat="44.42578" lon="6.73515">
        <ele>1246.8</ele>
        <time>2021-06-25T15:29:07Z</time>
      </trkpt>
      <trkpt lat="44.42585" lon="6.73515">
        <ele>1247.6</ele>
        <time>2021-06-25T15:29:11Z</time>
      </trkpt>
      <trkpt lat="44.42593" lon="6.73519">
        <ele>1248</ele>
        <time>2021-06-25T15:29:15Z</time>
      </trkpt>
      <trkpt lat="44.42601" lon="6.7353">
        <ele>1247.9</ele>
        <time>2021-06-25T15:29:19Z</time>
      </trkpt>
      <trkpt lat="44.42611" lon="6.73541">
        <ele>1247.7</ele>
        <time>2021-06-25T15:29:23Z</time>
      </trkpt>
      <trkpt lat="44.42626" lon="6.73546">
        <ele>1247.9</ele>
        <time>2021-06-25T15:29:27Z</time>
      </trkpt>
      <trkpt lat="44.42639" lon="6.73544">
        <ele>1248.6</ele>
        <time>2021-06-25T15:29:31Z</time>
      </trkpt>
      <trkpt lat="44.42655" lon="6.73545">
        <ele>1249.1</ele>
        <time>2021-06-25T15:29:35Z</time>
      </trkpt>
      <trkpt lat="44.42672" lon="6.73543">
        <ele>1250</ele>
        <time>2021-06-25T15:29:39Z</time>
      </trkpt>
      <trkpt lat="44.42687" lon="6.73537">
        <ele>1251.4</ele>
        <time>2021-06-25T15:29:43Z</time>
      </trkpt>
      <trkpt lat="44.42698" lon="6.73539">
        <ele>1251.5</ele>
        <time>2021-06-25T15:29:47Z</time>
      </trkpt>
      <trkpt lat="44.42715" lon="6.73543">
        <ele>1251.5</ele>
        <time>2021-06-25T15:29:51Z</time>
      </trkpt>
      <trkpt lat="44.42731" lon="6.73545">
        <ele>1251.8</ele>
        <time>2021-06-25T15:29:55Z</time>
      </trkpt>
      <trkpt lat="44.42747" lon="6.73545">
        <ele>1252.3</ele>
        <time>2021-06-25T15:29:59Z</time>
      </trkpt>
      <trkpt lat="44.42762" lon="6.73547">
        <ele>1252.5</ele>
        <time>2021-06-25T15:30:03Z</time>
      </trkpt>
      <trkpt lat="44.42773" lon="6.73539">
        <ele>1254.3</ele>
        <time>2021-06-25T15:30:07Z</time>
      </trkpt>
      <trkpt lat="44.42779" lon="6.73534">
        <ele>1255.5</ele>
        <time>2021-06-25T15:30:11Z</time>
      </trkpt>
      <trkpt lat="44.42788" lon="6.73532">
        <ele>1256.3</ele>
        <time>2021-06-25T15:30:15Z</time>
      </trkpt>
      <trkpt lat="44.42796" lon="6.73528">
        <ele>1257.5</ele>
        <time>2021-06-25T15:30:19Z</time>
      </trkpt>
      <trkpt lat="44.42807" lon="6.73525">
        <ele>1258.7</ele>
        <time>2021-06-25T15:30:23Z</time>
      </trkpt>
      <trkpt lat="44.42817" lon="6.73522">
        <ele>1259.9</ele>
        <time>2021-06-25T15:30:27Z</time>
      </trkpt>
      <trkpt lat="44.42826" lon="6.7352">
        <ele>1260.8</ele>
        <time>2021-06-25T15:30:31Z</time>
      </trkpt>
      <trkpt lat="44.42836" lon="6.7352">
        <ele>1261.3</ele>
        <time>2021-06-25T15:30:35Z</time>
      </trkpt>
      <trkpt lat="44.42844" lon="6.73514">
        <ele>1263.1</ele>
        <time>2021-06-25T15:30:39Z</time>
      </trkpt>
      <trkpt lat="44.42852" lon="6.73515">
        <ele>1263.2</ele>
        <time>2021-06-25T15:30:43Z</time>
      </trkpt>
      <trkpt lat="44.4286" lon="6.73516">
        <ele>1263.2</ele>
        <time>2021-06-25T15:30:47Z</time>
      </trkpt>
      <trkpt lat="44.42866" lon="6.73518">
        <ele>1262.9</ele>
        <time>2021-06-25T15:30:51Z</time>
      </trkpt>
      <trkpt lat="44.42872" lon="6.73523">
        <ele>1261.6</ele>
        <time>2021-06-25T15:30:55Z</time>
      </trkpt>
      <trkpt lat="44.42878" lon="6.73527">
        <ele>1260.6</ele>
        <time>2021-06-25T15:30:59Z</time>
      </trkpt>
      <trkpt lat="44.42885" lon="6.73528">
        <ele>1260.5</ele>
        <time>2021-06-25T15:31:03Z</time>
      </trkpt>
      <trkpt lat="44.42891" lon="6.7353">
        <ele>1260</ele>
        <time>2021-06-25T15:31:07Z</time>
      </trkpt>
      <trkpt lat="44.42898" lon="6.73535">
        <ele>1258.5</ele>
        <time>2021-06-25T15:31:11Z</time>
      </trkpt>
      <trkpt lat="44.42904" lon="6.73537">
        <ele>1258</ele>
        <time>2021-06-25T15:31:15Z</time>
      </trkpt>
      <trkpt lat="44.42909" lon="6.73532">
        <ele>1259.7</ele>
        <time>2021-06-25T15:31:19Z</time>
      </trkpt>
      <trkpt lat="44.42914" lon="6.73539">
        <ele>1257.4</ele>
        <time>2021-06-25T15:31:23Z</time>
      </trkpt>
      <trkpt lat="44.42919" lon="6.73543">
        <ele>1256.9</ele>
        <time>2021-06-25T15:31:27Z</time>
      </trkpt>
      <trkpt lat="44.42922" lon="6.73545">
        <ele>1257.3</ele>
        <time>2021-06-25T15:31:31Z</time>
      </trkpt>
      <trkpt lat="44.42928" lon="6.73549">
        <ele>1258</ele>
        <time>2021-06-25T15:31:35Z</time>
      </trkpt>
      <trkpt lat="44.42934" lon="6.73552">
        <ele>1259</ele>
        <time>2021-06-25T15:31:39Z</time>
      </trkpt>
      <trkpt lat="44.4294" lon="6.73559">
        <ele>1258.5</ele>
        <time>2021-06-25T15:31:43Z</time>
      </trkpt>
      <trkpt lat="44.42945" lon="6.73566">
        <ele>1257.5</ele>
        <time>2021-06-25T15:31:47Z</time>
      </trkpt>
      <trkpt lat="44.4295" lon="6.73577">
        <ele>1254.9</ele>
        <time>2021-06-25T15:31:51Z</time>
      </trkpt>
      <trkpt lat="44.42955" lon="6.73579">
        <ele>1255.7</ele>
        <time>2021-06-25T15:31:55Z</time>
      </trkpt>
      <trkpt lat="44.42961" lon="6.73587">
        <ele>1255.2</ele>
        <time>2021-06-25T15:31:59Z</time>
      </trkpt>
      <trkpt lat="44.42967" lon="6.73588">
        <ele>1256.9</ele>
        <time>2021-06-25T15:32:03Z</time>
      </trkpt>
      <trkpt lat="44.42973" lon="6.73592">
        <ele>1258</ele>
        <time>2021-06-25T15:32:07Z</time>
      </trkpt>
      <trkpt lat="44.4298" lon="6.73597">
        <ele>1259.1</ele>
        <time>2021-06-25T15:32:11Z</time>
      </trkpt>
      <trkpt lat="44.42986" lon="6.73599">
        <ele>1260.5</ele>
        <time>2021-06-25T15:32:15Z</time>
      </trkpt>
      <trkpt lat="44.42992" lon="6.73602">
        <ele>1261.6</ele>
        <time>2021-06-25T15:32:19Z</time>
      </trkpt>
      <trkpt lat="44.43" lon="6.73607">
        <ele>1262.9</ele>
        <time>2021-06-25T15:32:23Z</time>
      </trkpt>
      <trkpt lat="44.43006" lon="6.73613">
        <ele>1264.3</ele>
        <time>2021-06-25T15:32:27Z</time>
      </trkpt>
      <trkpt lat="44.43011" lon="6.73617">
        <ele>1265.6</ele>
        <time>2021-06-25T15:32:31Z</time>
      </trkpt>
      <trkpt lat="44.43016" lon="6.73624">
        <ele>1266.1</ele>
        <time>2021-06-25T15:32:35Z</time>
      </trkpt>
      <trkpt lat="44.43021" lon="6.73632">
        <ele>1266.2</ele>
        <time>2021-06-25T15:32:39Z</time>
      </trkpt>
      <trkpt lat="44.43024" lon="6.7364">
        <ele>1265.4</ele>
        <time>2021-06-25T15:32:43Z</time>
      </trkpt>
      <trkpt lat="44.43027" lon="6.73645">
        <ele>1265.3</ele>
        <time>2021-06-25T15:32:47Z</time>
      </trkpt>
      <trkpt lat="44.43031" lon="6.73651">
        <ele>1265.3</ele>
        <time>2021-06-25T15:32:51Z</time>
      </trkpt>
      <trkpt lat="44.43035" lon="6.73656">
        <ele>1265.5</ele>
        <time>2021-06-25T15:32:55Z</time>
      </trkpt>
      <trkpt lat="44.43039" lon="6.73662">
        <ele>1265.3</ele>
        <time>2021-06-25T15:32:59Z</time>
      </trkpt>
      <trkpt lat="44.43045" lon="6.73665">
        <ele>1266.7</ele>
        <time>2021-06-25T15:33:03Z</time>
      </trkpt>
      <trkpt lat="44.43052" lon="6.73665">
        <ele>1269.2</ele>
        <time>2021-06-25T15:33:07Z</time>
      </trkpt>
      <trkpt lat="44.43057" lon="6.73666">
        <ele>1270.7</ele>
        <time>2021-06-25T15:33:11Z</time>
      </trkpt>
      <trkpt lat="44.43063" lon="6.73667">
        <ele>1272.6</ele>
        <time>2021-06-25T15:33:15Z</time>
      </trkpt>
      <trkpt lat="44.43068" lon="6.73667">
        <ele>1274.4</ele>
        <time>2021-06-25T15:33:19Z</time>
      </trkpt>
      <trkpt lat="44.43073" lon="6.7367">
        <ele>1275.5</ele>
        <time>2021-06-25T15:33:23Z</time>
      </trkpt>
      <trkpt lat="44.43078" lon="6.7367">
        <ele>1277.3</ele>
        <time>2021-06-25T15:33:27Z</time>
      </trkpt>
      <trkpt lat="44.43084" lon="6.7367">
        <ele>1279.5</ele>
        <time>2021-06-25T15:33:31Z</time>
      </trkpt>
      <trkpt lat="44.43091" lon="6.73675">
        <ele>1281.3</ele>
        <time>2021-06-25T15:33:35Z</time>
      </trkpt>
      <trkpt lat="44.43098" lon="6.73685">
        <ele>1281.8</ele>
        <time>2021-06-25T15:33:39Z</time>
      </trkpt>
      <trkpt lat="44.43105" lon="6.73694">
        <ele>1282.5</ele>
        <time>2021-06-25T15:33:43Z</time>
      </trkpt>
      <trkpt lat="44.43113" lon="6.737">
        <ele>1284.3</ele>
        <time>2021-06-25T15:33:47Z</time>
      </trkpt>
      <trkpt lat="44.4312" lon="6.73699">
        <ele>1287.5</ele>
        <time>2021-06-25T15:33:51Z</time>
      </trkpt>
      <trkpt lat="44.43126" lon="6.73703">
        <ele>1289</ele>
        <time>2021-06-25T15:33:55Z</time>
      </trkpt>
      <trkpt lat="44.43133" lon="6.73706">
        <ele>1291</ele>
        <time>2021-06-25T15:33:59Z</time>
      </trkpt>
      <trkpt lat="44.43138" lon="6.73714">
        <ele>1290.8</ele>
        <time>2021-06-25T15:34:03Z</time>
      </trkpt>
      <trkpt lat="44.43145" lon="6.73721">
        <ele>1291.5</ele>
        <time>2021-06-25T15:34:07Z</time>
      </trkpt>
      <trkpt lat="44.43152" lon="6.7373">
        <ele>1291.6</ele>
        <time>2021-06-25T15:34:11Z</time>
      </trkpt>
      <trkpt lat="44.43158" lon="6.73733">
        <ele>1293.1</ele>
        <time>2021-06-25T15:34:15Z</time>
      </trkpt>
      <trkpt lat="44.43163" lon="6.73743">
        <ele>1291.8</ele>
        <time>2021-06-25T15:34:19Z</time>
      </trkpt>
      <trkpt lat="44.43168" lon="6.73751">
        <ele>1291.3</ele>
        <time>2021-06-25T15:34:23Z</time>
      </trkpt>
      <trkpt lat="44.43182" lon="6.73757">
        <ele>1295.9</ele>
        <time>2021-06-25T15:34:27Z</time>
      </trkpt>
      <trkpt lat="44.43189" lon="6.73763">
        <ele>1297.5</ele>
        <time>2021-06-25T15:34:31Z</time>
      </trkpt>
      <trkpt lat="44.43195" lon="6.73771">
        <ele>1298.1</ele>
        <time>2021-06-25T15:34:35Z</time>
      </trkpt>
      <trkpt lat="44.43201" lon="6.73775">
        <ele>1300</ele>
        <time>2021-06-25T15:34:39Z</time>
      </trkpt>
      <trkpt lat="44.43209" lon="6.73781">
        <ele>1302.3</ele>
        <time>2021-06-25T15:34:43Z</time>
      </trkpt>
      <trkpt lat="44.43216" lon="6.73786">
        <ele>1304.6</ele>
        <time>2021-06-25T15:34:47Z</time>
      </trkpt>
      <trkpt lat="44.43221" lon="6.73794">
        <ele>1305.1</ele>
        <time>2021-06-25T15:34:59Z</time>
      </trkpt>
      <trkpt lat="44.43226" lon="6.73802">
        <ele>1305.8</ele>
        <time>2021-06-25T15:35:03Z</time>
      </trkpt>
      <trkpt lat="44.43236" lon="6.7382">
        <ele>1307.1</ele>
        <time>2021-06-25T15:35:07Z</time>
      </trkpt>
      <trkpt lat="44.43254" lon="6.73845">
        <ele>1308.7</ele>
        <time>2021-06-25T15:35:11Z</time>
      </trkpt>
      <trkpt lat="44.4328" lon="6.73866">
        <ele>1308.1</ele>
        <time>2021-06-25T15:35:15Z</time>
      </trkpt>
      <trkpt lat="44.43297" lon="6.73882">
        <ele>1307.4</ele>
        <time>2021-06-25T15:35:19Z</time>
      </trkpt>
      <trkpt lat="44.43309" lon="6.73889">
        <ele>1308.5</ele>
        <time>2021-06-25T15:35:23Z</time>
      </trkpt>
      <trkpt lat="44.43321" lon="6.73898">
        <ele>1309.1</ele>
        <time>2021-06-25T15:35:27Z</time>
      </trkpt>
      <trkpt lat="44.43338" lon="6.73906">
        <ele>1310.9</ele>
        <time>2021-06-25T15:35:31Z</time>
      </trkpt>
      <trkpt lat="44.43358" lon="6.7392">
        <ele>1309.5</ele>
        <time>2021-06-25T15:35:35Z</time>
      </trkpt>
      <trkpt lat="44.43387" lon="6.7392">
        <ele>1313.7</ele>
        <time>2021-06-25T15:35:39Z</time>
      </trkpt>
      <trkpt lat="44.43411" lon="6.73949">
        <ele>1308.8</ele>
        <time>2021-06-25T15:35:43Z</time>
      </trkpt>
      <trkpt lat="44.43411" lon="6.7399">
        <ele>1296.8</ele>
        <time>2021-06-25T15:35:47Z</time>
      </trkpt>
      <trkpt lat="44.43394" lon="6.74">
        <ele>1290.6</ele>
        <time>2021-06-25T15:35:51Z</time>
      </trkpt>
      <trkpt lat="44.43395" lon="6.74027">
        <ele>1279.5</ele>
        <time>2021-06-25T15:35:55Z</time>
      </trkpt>
      <trkpt lat="44.43426" lon="6.74031">
        <ele>1286.7</ele>
        <time>2021-06-25T15:35:59Z</time>
      </trkpt>
      <trkpt lat="44.43449" lon="6.74018">
        <ele>1303.4</ele>
        <time>2021-06-25T15:36:03Z</time>
      </trkpt>
      <trkpt lat="44.43474" lon="6.74029">
        <ele>1311.5</ele>
        <time>2021-06-25T15:36:07Z</time>
      </trkpt>
      <trkpt lat="44.43494" lon="6.74062">
        <ele>1309.5</ele>
        <time>2021-06-25T15:36:11Z</time>
      </trkpt>
      <trkpt lat="44.4349" lon="6.74086">
        <ele>1298.7</ele>
        <time>2021-06-25T15:36:15Z</time>
      </trkpt>
      <trkpt lat="44.43484" lon="6.74073">
        <ele>1300.2</ele>
        <time>2021-06-25T15:36:19Z</time>
      </trkpt>
      <trkpt lat="44.43469" lon="6.7405">
        <ele>1301</ele>
        <time>2021-06-25T15:36:23Z</time>
      </trkpt>
      <trkpt lat="44.43445" lon="6.74048">
        <ele>1289.4</ele>
        <time>2021-06-25T15:36:27Z</time>
      </trkpt>
      <trkpt lat="44.4342" lon="6.74069">
        <ele>1267.8</ele>
        <time>2021-06-25T15:36:31Z</time>
      </trkpt>
      <trkpt lat="44.43388" lon="6.74088">
        <ele>1253.6</ele>
        <time>2021-06-25T15:36:35Z</time>
      </trkpt>
      <trkpt lat="44.43367" lon="6.74106">
        <ele>1247</ele>
        <time>2021-06-25T15:36:39Z</time>
      </trkpt>
      <trkpt lat="44.43378" lon="6.74116">
        <ele>1246.9</ele>
        <time>2021-06-25T15:36:43Z</time>
      </trkpt>
      <trkpt lat="44.43403" lon="6.74121">
        <ele>1249.2</ele>
        <time>2021-06-25T15:36:47Z</time>
      </trkpt>
      <trkpt lat="44.43393" lon="6.74135">
        <ele>1245.2</ele>
        <time>2021-06-25T15:36:51Z</time>
      </trkpt>
      <trkpt lat="44.43371" lon="6.7414">
        <ele>1242.1</ele>
        <time>2021-06-25T15:36:55Z</time>
      </trkpt>
      <trkpt lat="44.43355" lon="6.74143">
        <ele>1240.2</ele>
        <time>2021-06-25T15:36:59Z</time>
      </trkpt>
      <trkpt lat="44.43359" lon="6.7416">
        <ele>1238.2</ele>
        <time>2021-06-25T15:37:03Z</time>
      </trkpt>
      <trkpt lat="44.43363" lon="6.74185">
        <ele>1238.9</ele>
        <time>2021-06-25T15:37:07Z</time>
      </trkpt>
      <trkpt lat="44.43365" lon="6.74213">
        <ele>1241.4</ele>
        <time>2021-06-25T15:37:11Z</time>
      </trkpt>
      <trkpt lat="44.43362" lon="6.74238">
        <ele>1243.2</ele>
        <time>2021-06-25T15:37:15Z</time>
      </trkpt>
      <trkpt lat="44.43358" lon="6.74257">
        <ele>1243.6</ele>
        <time>2021-06-25T15:37:19Z</time>
      </trkpt>
      <trkpt lat="44.43351" lon="6.74275">
        <ele>1242.7</ele>
        <time>2021-06-25T15:37:23Z</time>
      </trkpt>
      <trkpt lat="44.43341" lon="6.74293">
        <ele>1241.5</ele>
        <time>2021-06-25T15:37:27Z</time>
      </trkpt>
      <trkpt lat="44.4333" lon="6.74303">
        <ele>1241.7</ele>
        <time>2021-06-25T15:37:31Z</time>
      </trkpt>
      <trkpt lat="44.43321" lon="6.74306">
        <ele>1244.5</ele>
        <time>2021-06-25T15:37:35Z</time>
      </trkpt>
      <trkpt lat="44.43313" lon="6.74306">
        <ele>1246.9</ele>
        <time>2021-06-25T15:37:39Z</time>
      </trkpt>
      <trkpt lat="44.43306" lon="6.74306">
        <ele>1249.1</ele>
        <time>2021-06-25T15:37:43Z</time>
      </trkpt>
      <trkpt lat="44.43298" lon="6.74305">
        <ele>1251.5</ele>
        <time>2021-06-25T15:37:47Z</time>
      </trkpt>
      <trkpt lat="44.43293" lon="6.74297">
        <ele>1252.8</ele>
        <time>2021-06-25T15:37:51Z</time>
      </trkpt>
      <trkpt lat="44.43291" lon="6.74288">
        <ele>1253.1</ele>
        <time>2021-06-25T15:37:55Z</time>
      </trkpt>
      <trkpt lat="44.4329" lon="6.7428">
        <ele>1253.1</ele>
        <time>2021-06-25T15:37:59Z</time>
      </trkpt>
      <trkpt lat="44.4329" lon="6.74271">
        <ele>1252.7</ele>
        <time>2021-06-25T15:38:03Z</time>
      </trkpt>
      <trkpt lat="44.43289" lon="6.74263">
        <ele>1252.7</ele>
        <time>2021-06-25T15:38:07Z</time>
      </trkpt>
      <trkpt lat="44.4329" lon="6.74255">
        <ele>1252.1</ele>
        <time>2021-06-25T15:38:11Z</time>
      </trkpt>
      <trkpt lat="44.4329" lon="6.74244">
        <ele>1251.4</ele>
        <time>2021-06-25T15:38:15Z</time>
      </trkpt>
      <trkpt lat="44.43291" lon="6.74233">
        <ele>1250</ele>
        <time>2021-06-25T15:38:19Z</time>
      </trkpt>
      <trkpt lat="44.43293" lon="6.74216">
        <ele>1247.9</ele>
        <time>2021-06-25T15:38:23Z</time>
      </trkpt>
      <trkpt lat="44.43292" lon="6.74207">
        <ele>1247.3</ele>
        <time>2021-06-25T15:38:27Z</time>
      </trkpt>
      <trkpt lat="44.43291" lon="6.74198">
        <ele>1246.7</ele>
        <time>2021-06-25T15:38:31Z</time>
      </trkpt>
      <trkpt lat="44.43288" lon="6.74192">
        <ele>1246.7</ele>
        <time>2021-06-25T15:38:35Z</time>
      </trkpt>
      <trkpt lat="44.43286" lon="6.74184">
        <ele>1246.3</ele>
        <time>2021-06-25T15:38:39Z</time>
      </trkpt>
      <trkpt lat="44.43283" lon="6.74177">
        <ele>1246.2</ele>
        <time>2021-06-25T15:38:43Z</time>
      </trkpt>
      <trkpt lat="44.43278" lon="6.74173">
        <ele>1246.7</ele>
        <time>2021-06-25T15:38:47Z</time>
      </trkpt>
      <trkpt lat="44.43272" lon="6.74167">
        <ele>1247.1</ele>
        <time>2021-06-25T15:38:51Z</time>
      </trkpt>
      <trkpt lat="44.43265" lon="6.74165">
        <ele>1248.1</ele>
        <time>2021-06-25T15:38:55Z</time>
      </trkpt>
      <trkpt lat="44.4326" lon="6.74167">
        <ele>1249.2</ele>
        <time>2021-06-25T15:38:59Z</time>
      </trkpt>
      <trkpt lat="44.43258" lon="6.74175">
        <ele>1250.7</ele>
        <time>2021-06-25T15:39:03Z</time>
      </trkpt>
      <trkpt lat="44.43256" lon="6.74183">
        <ele>1252.2</ele>
        <time>2021-06-25T15:39:07Z</time>
      </trkpt>
      <trkpt lat="44.43253" lon="6.7419">
        <ele>1253.7</ele>
        <time>2021-06-25T15:39:11Z</time>
      </trkpt>
      <trkpt lat="44.43249" lon="6.74195">
        <ele>1255.3</ele>
        <time>2021-06-25T15:39:15Z</time>
      </trkpt>
      <trkpt lat="44.43244" lon="6.74198">
        <ele>1256.6</ele>
        <time>2021-06-25T15:39:19Z</time>
      </trkpt>
      <trkpt lat="44.43239" lon="6.74204">
        <ele>1258.4</ele>
        <time>2021-06-25T15:39:23Z</time>
      </trkpt>
      <trkpt lat="44.43235" lon="6.74213">
        <ele>1260.5</ele>
        <time>2021-06-25T15:39:27Z</time>
      </trkpt>
      <trkpt lat="44.43232" lon="6.74224">
        <ele>1262.9</ele>
        <time>2021-06-25T15:39:31Z</time>
      </trkpt>
      <trkpt lat="44.43228" lon="6.74234">
        <ele>1265.4</ele>
        <time>2021-06-25T15:39:35Z</time>
      </trkpt>
      <trkpt lat="44.43223" lon="6.74235">
        <ele>1266.6</ele>
        <time>2021-06-25T15:39:39Z</time>
      </trkpt>
      <trkpt lat="44.43217" lon="6.74235">
        <ele>1267.9</ele>
        <time>2021-06-25T15:39:43Z</time>
      </trkpt>
      <trkpt lat="44.43212" lon="6.74234">
        <ele>1268.7</ele>
        <time>2021-06-25T15:39:47Z</time>
      </trkpt>
      <trkpt lat="44.43207" lon="6.74234">
        <ele>1269.8</ele>
        <time>2021-06-25T15:39:51Z</time>
      </trkpt>
      <trkpt lat="44.43201" lon="6.74232">
        <ele>1270.7</ele>
        <time>2021-06-25T15:39:55Z</time>
      </trkpt>
      <trkpt lat="44.43196" lon="6.74231">
        <ele>1271.5</ele>
        <time>2021-06-25T15:39:59Z</time>
      </trkpt>
      <trkpt lat="44.43188" lon="6.74228">
        <ele>1272.6</ele>
        <time>2021-06-25T15:40:03Z</time>
      </trkpt>
      <trkpt lat="44.43183" lon="6.74226">
        <ele>1273.2</ele>
        <time>2021-06-25T15:40:07Z</time>
      </trkpt>
      <trkpt lat="44.43178" lon="6.74224">
        <ele>1273.8</ele>
        <time>2021-06-25T15:40:11Z</time>
      </trkpt>
      <trkpt lat="44.43174" lon="6.74223">
        <ele>1274.4</ele>
        <time>2021-06-25T15:40:15Z</time>
      </trkpt>
      <trkpt lat="44.43171" lon="6.74229">
        <ele>1276.3</ele>
        <time>2021-06-25T15:40:19Z</time>
      </trkpt>
      <trkpt lat="44.43175" lon="6.74231">
        <ele>1275.9</ele>
        <time>2021-06-25T15:40:23Z</time>
      </trkpt>
      <trkpt lat="44.4318" lon="6.74233">
        <ele>1275.3</ele>
        <time>2021-06-25T15:40:27Z</time>
      </trkpt>
      <trkpt lat="44.43184" lon="6.74238">
        <ele>1275.5</ele>
        <time>2021-06-25T15:40:31Z</time>
      </trkpt>
      <trkpt lat="44.43188" lon="6.74244">
        <ele>1275.9</ele>
        <time>2021-06-25T15:40:35Z</time>
      </trkpt>
      <trkpt lat="44.43192" lon="6.74254">
        <ele>1277</ele>
        <time>2021-06-25T15:40:39Z</time>
      </trkpt>
      <trkpt lat="44.43195" lon="6.74262">
        <ele>1277.9</ele>
        <time>2021-06-25T15:40:43Z</time>
      </trkpt>
      <trkpt lat="44.43197" lon="6.74267">
        <ele>1278.3</ele>
        <time>2021-06-25T15:40:47Z</time>
      </trkpt>
      <trkpt lat="44.43199" lon="6.74272">
        <ele>1278.7</ele>
        <time>2021-06-25T15:40:51Z</time>
      </trkpt>
      <trkpt lat="44.43201" lon="6.74279">
        <ele>1279.4</ele>
        <time>2021-06-25T15:40:55Z</time>
      </trkpt>
      <trkpt lat="44.43202" lon="6.74286">
        <ele>1280.3</ele>
        <time>2021-06-25T15:40:59Z</time>
      </trkpt>
      <trkpt lat="44.43203" lon="6.74293">
        <ele>1281.2</ele>
        <time>2021-06-25T15:41:03Z</time>
      </trkpt>
      <trkpt lat="44.43205" lon="6.743">
        <ele>1281.8</ele>
        <time>2021-06-25T15:41:07Z</time>
      </trkpt>
      <trkpt lat="44.43204" lon="6.74307">
        <ele>1283.3</ele>
        <time>2021-06-25T15:41:11Z</time>
      </trkpt>
      <trkpt lat="44.43204" lon="6.74313">
        <ele>1284.4</ele>
        <time>2021-06-25T15:41:15Z</time>
      </trkpt>
      <trkpt lat="44.43201" lon="6.74315">
        <ele>1285.9</ele>
        <time>2021-06-25T15:41:19Z</time>
      </trkpt>
      <trkpt lat="44.43198" lon="6.74309">
        <ele>1285.9</ele>
        <time>2021-06-25T15:41:23Z</time>
      </trkpt>
      <trkpt lat="44.43197" lon="6.74304">
        <ele>1285.3</ele>
        <time>2021-06-25T15:41:27Z</time>
      </trkpt>
      <trkpt lat="44.43194" lon="6.743">
        <ele>1285.6</ele>
        <time>2021-06-25T15:41:31Z</time>
      </trkpt>
      <trkpt lat="44.4319" lon="6.74293">
        <ele>1285.6</ele>
        <time>2021-06-25T15:41:35Z</time>
      </trkpt>
      <trkpt lat="44.43186" lon="6.74287">
        <ele>1285.6</ele>
        <time>2021-06-25T15:41:39Z</time>
      </trkpt>
      <trkpt lat="44.43184" lon="6.74282">
        <ele>1285.1</ele>
        <time>2021-06-25T15:41:43Z</time>
      </trkpt>
      <trkpt lat="44.4318" lon="6.74279">
        <ele>1285.7</ele>
        <time>2021-06-25T15:41:47Z</time>
      </trkpt>
      <trkpt lat="44.43175" lon="6.74277">
        <ele>1286.7</ele>
        <time>2021-06-25T15:41:51Z</time>
      </trkpt>
      <trkpt lat="44.43172" lon="6.74274">
        <ele>1286.8</ele>
        <time>2021-06-25T15:41:55Z</time>
      </trkpt>
      <trkpt lat="44.43166" lon="6.74272">
        <ele>1288.1</ele>
        <time>2021-06-25T15:41:59Z</time>
      </trkpt>
      <trkpt lat="44.43161" lon="6.7427">
        <ele>1289.8</ele>
        <time>2021-06-25T15:42:03Z</time>
      </trkpt>
      <trkpt lat="44.43156" lon="6.74267">
        <ele>1291.3</ele>
        <time>2021-06-25T15:42:07Z</time>
      </trkpt>
      <trkpt lat="44.43151" lon="6.74265">
        <ele>1293</ele>
        <time>2021-06-25T15:42:11Z</time>
      </trkpt>
      <trkpt lat="44.43147" lon="6.74266">
        <ele>1295.1</ele>
        <time>2021-06-25T15:42:15Z</time>
      </trkpt>
      <trkpt lat="44.43144" lon="6.74267">
        <ele>1296.7</ele>
        <time>2021-06-25T15:42:19Z</time>
      </trkpt>
      <trkpt lat="44.43139" lon="6.74265">
        <ele>1298.4</ele>
        <time>2021-06-25T15:42:23Z</time>
      </trkpt>
      <trkpt lat="44.43134" lon="6.74264">
        <ele>1300.4</ele>
        <time>2021-06-25T15:42:27Z</time>
      </trkpt>
      <trkpt lat="44.43129" lon="6.74263">
        <ele>1302.4</ele>
        <time>2021-06-25T15:42:31Z</time>
      </trkpt>
      <trkpt lat="44.43124" lon="6.74263">
        <ele>1304.6</ele>
        <time>2021-06-25T15:42:35Z</time>
      </trkpt>
      <trkpt lat="44.43121" lon="6.74262">
        <ele>1305.8</ele>
        <time>2021-06-25T15:42:39Z</time>
      </trkpt>
      <trkpt lat="44.43117" lon="6.74259">
        <ele>1306.8</ele>
        <time>2021-06-25T15:42:43Z</time>
      </trkpt>
      <trkpt lat="44.43113" lon="6.74255">
        <ele>1307.7</ele>
        <time>2021-06-25T15:42:47Z</time>
      </trkpt>
      <trkpt lat="44.43111" lon="6.74251">
        <ele>1307.6</ele>
        <time>2021-06-25T15:42:51Z</time>
      </trkpt>
      <trkpt lat="44.43107" lon="6.74246">
        <ele>1308.3</ele>
        <time>2021-06-25T15:42:55Z</time>
      </trkpt>
      <trkpt lat="44.43103" lon="6.74241">
        <ele>1309.1</ele>
        <time>2021-06-25T15:42:59Z</time>
      </trkpt>
      <trkpt lat="44.43099" lon="6.74235">
        <ele>1309.6</ele>
        <time>2021-06-25T15:43:03Z</time>
      </trkpt>
      <trkpt lat="44.43097" lon="6.74228">
        <ele>1309</ele>
        <time>2021-06-25T15:43:07Z</time>
      </trkpt>
      <trkpt lat="44.43095" lon="6.74223">
        <ele>1308.8</ele>
        <time>2021-06-25T15:43:11Z</time>
      </trkpt>
      <trkpt lat="44.43092" lon="6.74217">
        <ele>1308.9</ele>
        <time>2021-06-25T15:43:15Z</time>
      </trkpt>
      <trkpt lat="44.4309" lon="6.74211">
        <ele>1308.5</ele>
        <time>2021-06-25T15:43:19Z</time>
      </trkpt>
      <trkpt lat="44.43085" lon="6.74202">
        <ele>1308.9</ele>
        <time>2021-06-25T15:43:23Z</time>
      </trkpt>
      <trkpt lat="44.43082" lon="6.74195">
        <ele>1308.7</ele>
        <time>2021-06-25T15:43:27Z</time>
      </trkpt>
      <trkpt lat="44.4308" lon="6.74189">
        <ele>1308.3</ele>
        <time>2021-06-25T15:43:31Z</time>
      </trkpt>
      <trkpt lat="44.43077" lon="6.74182">
        <ele>1308.1</ele>
        <time>2021-06-25T15:43:35Z</time>
      </trkpt>
      <trkpt lat="44.43073" lon="6.74176">
        <ele>1308.5</ele>
        <time>2021-06-25T15:43:39Z</time>
      </trkpt>
      <trkpt lat="44.43069" lon="6.74171">
        <ele>1309.3</ele>
        <time>2021-06-25T15:43:43Z</time>
      </trkpt>
      <trkpt lat="44.43066" lon="6.74165">
        <ele>1309.5</ele>
        <time>2021-06-25T15:43:47Z</time>
      </trkpt>
      <trkpt lat="44.43061" lon="6.74161">
        <ele>1311.2</ele>
        <time>2021-06-25T15:43:51Z</time>
      </trkpt>
      <trkpt lat="44.43056" lon="6.74156">
        <ele>1312.7</ele>
        <time>2021-06-25T15:43:55Z</time>
      </trkpt>
      <trkpt lat="44.4305" lon="6.74149">
        <ele>1314.2</ele>
        <time>2021-06-25T15:43:59Z</time>
      </trkpt>
      <trkpt lat="44.43046" lon="6.74142">
        <ele>1314.7</ele>
        <time>2021-06-25T15:44:03Z</time>
      </trkpt>
      <trkpt lat="44.43042" lon="6.74136">
        <ele>1315.4</ele>
        <time>2021-06-25T15:44:07Z</time>
      </trkpt>
      <trkpt lat="44.43039" lon="6.74131">
        <ele>1315.8</ele>
        <time>2021-06-25T15:44:11Z</time>
      </trkpt>
      <trkpt lat="44.43036" lon="6.74126">
        <ele>1316.1</ele>
        <time>2021-06-25T15:44:15Z</time>
      </trkpt>
      <trkpt lat="44.43032" lon="6.7412">
        <ele>1316.5</ele>
        <time>2021-06-25T15:44:19Z</time>
      </trkpt>
      <trkpt lat="44.43027" lon="6.74115">
        <ele>1317.4</ele>
        <time>2021-06-25T15:44:23Z</time>
      </trkpt>
      <trkpt lat="44.43024" lon="6.7411">
        <ele>1317.6</ele>
        <time>2021-06-25T15:44:27Z</time>
      </trkpt>
      <trkpt lat="44.43021" lon="6.74107">
        <ele>1318.1</ele>
        <time>2021-06-25T15:44:31Z</time>
      </trkpt>
      <trkpt lat="44.43017" lon="6.74104">
        <ele>1318.9</ele>
        <time>2021-06-25T15:44:35Z</time>
      </trkpt>
      <trkpt lat="44.43013" lon="6.7409">
        <ele>1317.3</ele>
        <time>2021-06-25T15:44:39Z</time>
      </trkpt>
      <trkpt lat="44.43017" lon="6.74058">
        <ele>1309.8</ele>
        <time>2021-06-25T15:44:43Z</time>
      </trkpt>
      <trkpt lat="44.43025" lon="6.7405">
        <ele>1305.6</ele>
        <time>2021-06-25T15:44:47Z</time>
      </trkpt>
      <trkpt lat="44.43039" lon="6.7406">
        <ele>1303</ele>
        <time>2021-06-25T15:44:51Z</time>
      </trkpt>
      <trkpt lat="44.43057" lon="6.74068">
        <ele>1298.8</ele>
        <time>2021-06-25T15:44:55Z</time>
      </trkpt>
      <trkpt lat="44.4307" lon="6.74079">
        <ele>1297.2</ele>
        <time>2021-06-25T15:44:59Z</time>
      </trkpt>
      <trkpt lat="44.43079" lon="6.74082">
        <ele>1295</ele>
        <time>2021-06-25T15:45:03Z</time>
      </trkpt>
      <trkpt lat="44.43078" lon="6.74079">
        <ele>1294.6</ele>
        <time>2021-06-25T15:45:07Z</time>
      </trkpt>
      <trkpt lat="44.43077" lon="6.74072">
        <ele>1293.3</ele>
        <time>2021-06-25T15:45:11Z</time>
      </trkpt>
      <trkpt lat="44.43075" lon="6.74066">
        <ele>1292.5</ele>
        <time>2021-06-25T15:45:15Z</time>
      </trkpt>
      <trkpt lat="44.4307" lon="6.7406">
        <ele>1292.8</ele>
        <time>2021-06-25T15:45:19Z</time>
      </trkpt>
      <trkpt lat="44.43065" lon="6.74056">
        <ele>1293.5</ele>
        <time>2021-06-25T15:45:23Z</time>
      </trkpt>
      <trkpt lat="44.43058" lon="6.74049">
        <ele>1294.3</ele>
        <time>2021-06-25T15:45:27Z</time>
      </trkpt>
      <trkpt lat="44.43045" lon="6.74028">
        <ele>1294.2</ele>
        <time>2021-06-25T15:45:31Z</time>
      </trkpt>
      <trkpt lat="44.43032" lon="6.73998">
        <ele>1292.4</ele>
        <time>2021-06-25T15:45:35Z</time>
      </trkpt>
      <trkpt lat="44.43019" lon="6.73982">
        <ele>1291.6</ele>
        <time>2021-06-25T15:45:39Z</time>
      </trkpt>
      <trkpt lat="44.43006" lon="6.73971">
        <ele>1292.4</ele>
        <time>2021-06-25T15:45:43Z</time>
      </trkpt>
      <trkpt lat="44.42997" lon="6.73958">
        <ele>1291</ele>
        <time>2021-06-25T15:45:47Z</time>
      </trkpt>
      <trkpt lat="44.42983" lon="6.73946">
        <ele>1291.9</ele>
        <time>2021-06-25T15:45:51Z</time>
      </trkpt>
      <trkpt lat="44.42967" lon="6.73939">
        <ele>1295.2</ele>
        <time>2021-06-25T15:45:55Z</time>
      </trkpt>
      <trkpt lat="44.42959" lon="6.73929">
        <ele>1294.4</ele>
        <time>2021-06-25T15:45:59Z</time>
      </trkpt>
      <trkpt lat="44.42952" lon="6.73928">
        <ele>1296.6</ele>
        <time>2021-06-25T15:46:03Z</time>
      </trkpt>
      <trkpt lat="44.42947" lon="6.73925">
        <ele>1297.3</ele>
        <time>2021-06-25T15:46:07Z</time>
      </trkpt>
      <trkpt lat="44.4294" lon="6.7392">
        <ele>1297.9</ele>
        <time>2021-06-25T15:46:11Z</time>
      </trkpt>
      <trkpt lat="44.42932" lon="6.73914">
        <ele>1298.2</ele>
        <time>2021-06-25T15:46:15Z</time>
      </trkpt>
      <trkpt lat="44.42923" lon="6.73909">
        <ele>1298.9</ele>
        <time>2021-06-25T15:46:19Z</time>
      </trkpt>
      <trkpt lat="44.42915" lon="6.73904">
        <ele>1298.9</ele>
        <time>2021-06-25T15:46:23Z</time>
      </trkpt>
      <trkpt lat="44.42907" lon="6.73902">
        <ele>1299.8</ele>
        <time>2021-06-25T15:46:27Z</time>
      </trkpt>
      <trkpt lat="44.42899" lon="6.73901">
        <ele>1301.2</ele>
        <time>2021-06-25T15:46:31Z</time>
      </trkpt>
      <trkpt lat="44.42892" lon="6.73896">
        <ele>1300.4</ele>
        <time>2021-06-25T15:46:35Z</time>
      </trkpt>
      <trkpt lat="44.42885" lon="6.73896">
        <ele>1302.1</ele>
        <time>2021-06-25T15:46:39Z</time>
      </trkpt>
      <trkpt lat="44.4288" lon="6.73892">
        <ele>1301.3</ele>
        <time>2021-06-25T15:46:43Z</time>
      </trkpt>
      <trkpt lat="44.42869" lon="6.73886">
        <ele>1301</ele>
        <time>2021-06-25T15:46:47Z</time>
      </trkpt>
      <trkpt lat="44.42859" lon="6.73884">
        <ele>1302.5</ele>
        <time>2021-06-25T15:46:51Z</time>
      </trkpt>
      <trkpt lat="44.42848" lon="6.73877">
        <ele>1301.8</ele>
        <time>2021-06-25T15:46:55Z</time>
      </trkpt>
      <trkpt lat="44.42838" lon="6.73872">
        <ele>1301.8</ele>
        <time>2021-06-25T15:46:59Z</time>
      </trkpt>
      <trkpt lat="44.42826" lon="6.7387">
        <ele>1302.1</ele>
        <time>2021-06-25T15:47:03Z</time>
      </trkpt>
      <trkpt lat="44.42819" lon="6.73869">
        <ele>1301.7</ele>
        <time>2021-06-25T15:47:07Z</time>
      </trkpt>
      <trkpt lat="44.42808" lon="6.73867">
        <ele>1300.8</ele>
        <time>2021-06-25T15:47:11Z</time>
      </trkpt>
      <trkpt lat="44.42796" lon="6.73864">
        <ele>1299.3</ele>
        <time>2021-06-25T15:47:15Z</time>
      </trkpt>
      <trkpt lat="44.42786" lon="6.73858">
        <ele>1296.2</ele>
        <time>2021-06-25T15:47:19Z</time>
      </trkpt>
      <trkpt lat="44.4278" lon="6.7385">
        <ele>1292.1</ele>
        <time>2021-06-25T15:47:23Z</time>
      </trkpt>
      <trkpt lat="44.42772" lon="6.73847">
        <ele>1290.5</ele>
        <time>2021-06-25T15:47:27Z</time>
      </trkpt>
      <trkpt lat="44.42763" lon="6.73848">
        <ele>1291</ele>
        <time>2021-06-25T15:47:31Z</time>
      </trkpt>
      <trkpt lat="44.42755" lon="6.73849">
        <ele>1291.5</ele>
        <time>2021-06-25T15:47:35Z</time>
      </trkpt>
      <trkpt lat="44.42748" lon="6.73848">
        <ele>1290.2</ele>
        <time>2021-06-25T15:47:39Z</time>
      </trkpt>
      <trkpt lat="44.42742" lon="6.73849">
        <ele>1288.6</ele>
        <time>2021-06-25T15:47:43Z</time>
      </trkpt>
      <trkpt lat="44.42736" lon="6.7385">
        <ele>1287</ele>
        <time>2021-06-25T15:47:47Z</time>
      </trkpt>
      <trkpt lat="44.42729" lon="6.73843">
        <ele>1280.3</ele>
        <time>2021-06-25T15:47:51Z</time>
      </trkpt>
      <trkpt lat="44.42726" lon="6.73848">
        <ele>1282.2</ele>
        <time>2021-06-25T15:47:55Z</time>
      </trkpt>
      <trkpt lat="44.42724" lon="6.73843">
        <ele>1278.5</ele>
        <time>2021-06-25T15:47:59Z</time>
      </trkpt>
      <trkpt lat="44.42719" lon="6.73845">
        <ele>1277.8</ele>
        <time>2021-06-25T15:48:03Z</time>
      </trkpt>
      <trkpt lat="44.42713" lon="6.73846">
        <ele>1276.2</ele>
        <time>2021-06-25T15:48:07Z</time>
      </trkpt>
      <trkpt lat="44.42707" lon="6.73843">
        <ele>1272.1</ele>
        <time>2021-06-25T15:48:11Z</time>
      </trkpt>
      <trkpt lat="44.42707" lon="6.73843">
        <ele>1272.1</ele>
        <time>2021-06-25T15:48:15Z</time>
      </trkpt>
      <trkpt lat="44.42709" lon="6.73848">
        <ele>1276</ele>
        <time>2021-06-25T15:48:19Z</time>
      </trkpt>
      <trkpt lat="44.42704" lon="6.73846">
        <ele>1272.9</ele>
        <time>2021-06-25T15:48:23Z</time>
      </trkpt>
      <trkpt lat="44.42702" lon="6.73847">
        <ele>1272.8</ele>
        <time>2021-06-25T15:48:27Z</time>
      </trkpt>
      <trkpt lat="44.42703" lon="6.73851">
        <ele>1275.7</ele>
        <time>2021-06-25T15:48:31Z</time>
      </trkpt>
      <trkpt lat="44.42701" lon="6.73851">
        <ele>1275</ele>
        <time>2021-06-25T15:48:35Z</time>
      </trkpt>
      <trkpt lat="44.42697" lon="6.73852">
        <ele>1274.2</ele>
        <time>2021-06-25T15:48:39Z</time>
      </trkpt>
      <trkpt lat="44.4269" lon="6.73865">
        <ele>1280.4</ele>
        <time>2021-06-25T15:48:43Z</time>
      </trkpt>
      <trkpt lat="44.42669" lon="6.73869">
        <ele>1276.4</ele>
        <time>2021-06-25T15:48:47Z</time>
      </trkpt>
      <trkpt lat="44.42654" lon="6.73871">
        <ele>1272.3</ele>
        <time>2021-06-25T15:48:51Z</time>
      </trkpt>
      <trkpt lat="44.4263" lon="6.73873">
        <ele>1264.4</ele>
        <time>2021-06-25T15:48:55Z</time>
      </trkpt>
      <trkpt lat="44.42617" lon="6.73877">
        <ele>1261.3</ele>
        <time>2021-06-25T15:48:59Z</time>
      </trkpt>
      <trkpt lat="44.42611" lon="6.73893">
        <ele>1266.6</ele>
        <time>2021-06-25T15:49:03Z</time>
      </trkpt>
      <trkpt lat="44.42603" lon="6.73903">
        <ele>1267.2</ele>
        <time>2021-06-25T15:49:07Z</time>
      </trkpt>
      <trkpt lat="44.42596" lon="6.73909">
        <ele>1266.1</ele>
        <time>2021-06-25T15:49:11Z</time>
      </trkpt>
      <trkpt lat="44.42589" lon="6.7391">
        <ele>1262.7</ele>
        <time>2021-06-25T15:49:15Z</time>
      </trkpt>
      <trkpt lat="44.42576" lon="6.73912">
        <ele>1258.5</ele>
        <time>2021-06-25T15:49:19Z</time>
      </trkpt>
      <trkpt lat="44.4256" lon="6.7392">
        <ele>1257.3</ele>
        <time>2021-06-25T15:49:23Z</time>
      </trkpt>
      <trkpt lat="44.4254" lon="6.73928">
        <ele>1254.7</ele>
        <time>2021-06-25T15:49:27Z</time>
      </trkpt>
      <trkpt lat="44.42518" lon="6.7393">
        <ele>1248.4</ele>
        <time>2021-06-25T15:49:31Z</time>
      </trkpt>
      <trkpt lat="44.4249" lon="6.73924">
        <ele>1239.5</ele>
        <time>2021-06-25T15:49:35Z</time>
      </trkpt>
      <trkpt lat="44.42463" lon="6.73927">
        <ele>1234.6</ele>
        <time>2021-06-25T15:49:39Z</time>
      </trkpt>
      <trkpt lat="44.42456" lon="6.73953">
        <ele>1237.1</ele>
        <time>2021-06-25T15:49:43Z</time>
      </trkpt>
      <trkpt lat="44.42447" lon="6.73957">
        <ele>1235.6</ele>
        <time>2021-06-25T15:49:47Z</time>
      </trkpt>
      <trkpt lat="44.42443" lon="6.7395">
        <ele>1233.7</ele>
        <time>2021-06-25T15:49:51Z</time>
      </trkpt>
      <trkpt lat="44.42445" lon="6.73917">
        <ele>1229.5</ele>
        <time>2021-06-25T15:49:55Z</time>
      </trkpt>
      <trkpt lat="44.42438" lon="6.73909">
        <ele>1228</ele>
        <time>2021-06-25T15:49:59Z</time>
      </trkpt>
      <trkpt lat="44.42425" lon="6.7392">
        <ele>1226</ele>
        <time>2021-06-25T15:50:03Z</time>
      </trkpt>
      <trkpt lat="44.42413" lon="6.73936">
        <ele>1226</ele>
        <time>2021-06-25T15:50:07Z</time>
      </trkpt>
      <trkpt lat="44.42405" lon="6.7395">
        <ele>1227.1</ele>
        <time>2021-06-25T15:50:11Z</time>
      </trkpt>
      <trkpt lat="44.42399" lon="6.73964">
        <ele>1228.1</ele>
        <time>2021-06-25T15:50:15Z</time>
      </trkpt>
      <trkpt lat="44.42391" lon="6.73979">
        <ele>1228.8</ele>
        <time>2021-06-25T15:50:19Z</time>
      </trkpt>
      <trkpt lat="44.42383" lon="6.73995">
        <ele>1229.4</ele>
        <time>2021-06-25T15:50:23Z</time>
      </trkpt>
      <trkpt lat="44.42378" lon="6.74006">
        <ele>1230.7</ele>
        <time>2021-06-25T15:50:27Z</time>
      </trkpt>
      <trkpt lat="44.42373" lon="6.74014">
        <ele>1231.9</ele>
        <time>2021-06-25T15:50:31Z</time>
      </trkpt>
      <trkpt lat="44.42366" lon="6.74023">
        <ele>1232.8</ele>
        <time>2021-06-25T15:50:35Z</time>
      </trkpt>
      <trkpt lat="44.42357" lon="6.74035">
        <ele>1233.7</ele>
        <time>2021-06-25T15:50:39Z</time>
      </trkpt>
      <trkpt lat="44.4235" lon="6.74047">
        <ele>1234.5</ele>
        <time>2021-06-25T15:50:43Z</time>
      </trkpt>
      <trkpt lat="44.42344" lon="6.74058">
        <ele>1235</ele>
        <time>2021-06-25T15:50:47Z</time>
      </trkpt>
      <trkpt lat="44.42337" lon="6.74069">
        <ele>1235</ele>
        <time>2021-06-25T15:50:51Z</time>
      </trkpt>
      <trkpt lat="44.42327" lon="6.74078">
        <ele>1234.3</ele>
        <time>2021-06-25T15:50:55Z</time>
      </trkpt>
      <trkpt lat="44.42317" lon="6.74089">
        <ele>1234.8</ele>
        <time>2021-06-25T15:50:59Z</time>
      </trkpt>
      <trkpt lat="44.42309" lon="6.74097">
        <ele>1235.4</ele>
        <time>2021-06-25T15:51:03Z</time>
      </trkpt>
      <trkpt lat="44.42297" lon="6.74103">
        <ele>1234.8</ele>
        <time>2021-06-25T15:51:07Z</time>
      </trkpt>
      <trkpt lat="44.42285" lon="6.74109">
        <ele>1234.1</ele>
        <time>2021-06-25T15:51:11Z</time>
      </trkpt>
      <trkpt lat="44.42272" lon="6.74116">
        <ele>1233.3</ele>
        <time>2021-06-25T15:51:15Z</time>
      </trkpt>
      <trkpt lat="44.42259" lon="6.74121">
        <ele>1231.9</ele>
        <time>2021-06-25T15:51:19Z</time>
      </trkpt>
      <trkpt lat="44.42248" lon="6.74127">
        <ele>1231.3</ele>
        <time>2021-06-25T15:51:23Z</time>
      </trkpt>
      <trkpt lat="44.42237" lon="6.74133">
        <ele>1231.7</ele>
        <time>2021-06-25T15:51:27Z</time>
      </trkpt>
      <trkpt lat="44.42228" lon="6.7414">
        <ele>1232.3</ele>
        <time>2021-06-25T15:51:31Z</time>
      </trkpt>
      <trkpt lat="44.4222" lon="6.74146">
        <ele>1232.7</ele>
        <time>2021-06-25T15:51:35Z</time>
      </trkpt>
      <trkpt lat="44.42214" lon="6.74153">
        <ele>1233.3</ele>
        <time>2021-06-25T15:51:39Z</time>
      </trkpt>
      <trkpt lat="44.42208" lon="6.74161">
        <ele>1234</ele>
        <time>2021-06-25T15:51:43Z</time>
      </trkpt>
      <trkpt lat="44.42201" lon="6.74169">
        <ele>1234.8</ele>
        <time>2021-06-25T15:51:47Z</time>
      </trkpt>
      <trkpt lat="44.42191" lon="6.74174">
        <ele>1235.1</ele>
        <time>2021-06-25T15:51:51Z</time>
      </trkpt>
      <trkpt lat="44.42183" lon="6.74177">
        <ele>1235</ele>
        <time>2021-06-25T15:51:55Z</time>
      </trkpt>
      <trkpt lat="44.42176" lon="6.74181">
        <ele>1235.2</ele>
        <time>2021-06-25T15:51:59Z</time>
      </trkpt>
      <trkpt lat="44.42169" lon="6.74185">
        <ele>1235.4</ele>
        <time>2021-06-25T15:52:03Z</time>
      </trkpt>
      <trkpt lat="44.42161" lon="6.7419">
        <ele>1236.4</ele>
        <time>2021-06-25T15:52:07Z</time>
      </trkpt>
      <trkpt lat="44.42152" lon="6.74194">
        <ele>1237.4</ele>
        <time>2021-06-25T15:52:11Z</time>
      </trkpt>
      <trkpt lat="44.42142" lon="6.74198">
        <ele>1238.5</ele>
        <time>2021-06-25T15:52:15Z</time>
      </trkpt>
      <trkpt lat="44.42131" lon="6.74202">
        <ele>1239.5</ele>
        <time>2021-06-25T15:52:19Z</time>
      </trkpt>
      <trkpt lat="44.4212" lon="6.74206">
        <ele>1240.6</ele>
        <time>2021-06-25T15:52:23Z</time>
      </trkpt>
      <trkpt lat="44.42109" lon="6.7421">
        <ele>1241.6</ele>
        <time>2021-06-25T15:52:27Z</time>
      </trkpt>
      <trkpt lat="44.42097" lon="6.74213">
        <ele>1242.4</ele>
        <time>2021-06-25T15:52:31Z</time>
      </trkpt>
      <trkpt lat="44.42087" lon="6.74214">
        <ele>1242.7</ele>
        <time>2021-06-25T15:52:35Z</time>
      </trkpt>
      <trkpt lat="44.42075" lon="6.74213">
        <ele>1242.6</ele>
        <time>2021-06-25T15:52:39Z</time>
      </trkpt>
      <trkpt lat="44.42064" lon="6.74209">
        <ele>1241.9</ele>
        <time>2021-06-25T15:52:43Z</time>
      </trkpt>
      <trkpt lat="44.42053" lon="6.74204">
        <ele>1241</ele>
        <time>2021-06-25T15:52:47Z</time>
      </trkpt>
      <trkpt lat="44.42043" lon="6.742">
        <ele>1240.3</ele>
        <time>2021-06-25T15:52:51Z</time>
      </trkpt>
      <trkpt lat="44.42034" lon="6.74198">
        <ele>1240.2</ele>
        <time>2021-06-25T15:52:55Z</time>
      </trkpt>
      <trkpt lat="44.42024" lon="6.74199">
        <ele>1240.9</ele>
        <time>2021-06-25T15:52:59Z</time>
      </trkpt>
      <trkpt lat="44.42015" lon="6.74203">
        <ele>1242.2</ele>
        <time>2021-06-25T15:53:03Z</time>
      </trkpt>
      <trkpt lat="44.42009" lon="6.74212">
        <ele>1244.5</ele>
        <time>2021-06-25T15:53:07Z</time>
      </trkpt>
      <trkpt lat="44.42012" lon="6.74224">
        <ele>1247.1</ele>
        <time>2021-06-25T15:53:11Z</time>
      </trkpt>
      <trkpt lat="44.4202" lon="6.74226">
        <ele>1247.4</ele>
        <time>2021-06-25T15:53:15Z</time>
      </trkpt>
      <trkpt lat="44.42029" lon="6.74229">
        <ele>1247.9</ele>
        <time>2021-06-25T15:53:19Z</time>
      </trkpt>
      <trkpt lat="44.42037" lon="6.74233">
        <ele>1248.8</ele>
        <time>2021-06-25T15:53:23Z</time>
      </trkpt>
      <trkpt lat="44.42046" lon="6.7424">
        <ele>1250.4</ele>
        <time>2021-06-25T15:53:27Z</time>
      </trkpt>
      <trkpt lat="44.42054" lon="6.74246">
        <ele>1251.9</ele>
        <time>2021-06-25T15:53:31Z</time>
      </trkpt>
      <trkpt lat="44.42063" lon="6.74253">
        <ele>1253.7</ele>
        <time>2021-06-25T15:53:35Z</time>
      </trkpt>
      <trkpt lat="44.42072" lon="6.74261">
        <ele>1255.7</ele>
        <time>2021-06-25T15:53:39Z</time>
      </trkpt>
      <trkpt lat="44.4208" lon="6.7427">
        <ele>1258</ele>
        <time>2021-06-25T15:53:43Z</time>
      </trkpt>
      <trkpt lat="44.42088" lon="6.74274">
        <ele>1259.2</ele>
        <time>2021-06-25T15:53:47Z</time>
      </trkpt>
      <trkpt lat="44.42097" lon="6.74274">
        <ele>1259.5</ele>
        <time>2021-06-25T15:53:51Z</time>
      </trkpt>
      <trkpt lat="44.42105" lon="6.74274">
        <ele>1259.7</ele>
        <time>2021-06-25T15:53:55Z</time>
      </trkpt>
      <trkpt lat="44.42109" lon="6.74281">
        <ele>1261.8</ele>
        <time>2021-06-25T15:53:59Z</time>
      </trkpt>
      <trkpt lat="44.42103" lon="6.74287">
        <ele>1263.3</ele>
        <time>2021-06-25T15:54:03Z</time>
      </trkpt>
      <trkpt lat="44.42095" lon="6.74289">
        <ele>1263.4</ele>
        <time>2021-06-25T15:54:07Z</time>
      </trkpt>
      <trkpt lat="44.42087" lon="6.74289">
        <ele>1263</ele>
        <time>2021-06-25T15:54:11Z</time>
      </trkpt>
      <trkpt lat="44.4208" lon="6.74289">
        <ele>1262.7</ele>
        <time>2021-06-25T15:54:15Z</time>
      </trkpt>
      <trkpt lat="44.42072" lon="6.74289">
        <ele>1262.5</ele>
        <time>2021-06-25T15:54:19Z</time>
      </trkpt>
      <trkpt lat="44.42064" lon="6.7429">
        <ele>1262.5</ele>
        <time>2021-06-25T15:54:23Z</time>
      </trkpt>
      <trkpt lat="44.42056" lon="6.74289">
        <ele>1262.1</ele>
        <time>2021-06-25T15:54:27Z</time>
      </trkpt>
      <trkpt lat="44.42047" lon="6.7429">
        <ele>1262</ele>
        <time>2021-06-25T15:54:31Z</time>
      </trkpt>
      <trkpt lat="44.42038" lon="6.74292">
        <ele>1262.2</ele>
        <time>2021-06-25T15:54:35Z</time>
      </trkpt>
      <trkpt lat="44.4203" lon="6.74295">
        <ele>1262.6</ele>
        <time>2021-06-25T15:54:39Z</time>
      </trkpt>
      <trkpt lat="44.42021" lon="6.74296">
        <ele>1262.5</ele>
        <time>2021-06-25T15:54:43Z</time>
      </trkpt>
      <trkpt lat="44.42013" lon="6.74295">
        <ele>1262.1</ele>
        <time>2021-06-25T15:54:47Z</time>
      </trkpt>
      <trkpt lat="44.42005" lon="6.74292">
        <ele>1261.2</ele>
        <time>2021-06-25T15:54:51Z</time>
      </trkpt>
      <trkpt lat="44.41997" lon="6.74296">
        <ele>1261.9</ele>
        <time>2021-06-25T15:54:55Z</time>
      </trkpt>
      <trkpt lat="44.41998" lon="6.74308">
        <ele>1264.2</ele>
        <time>2021-06-25T15:54:59Z</time>
      </trkpt>
      <trkpt lat="44.42004" lon="6.74318">
        <ele>1266.3</ele>
        <time>2021-06-25T15:55:03Z</time>
      </trkpt>
      <trkpt lat="44.4201" lon="6.74327">
        <ele>1268.3</ele>
        <time>2021-06-25T15:55:07Z</time>
      </trkpt>
      <trkpt lat="44.42011" lon="6.74339">
        <ele>1271.6</ele>
        <time>2021-06-25T15:55:11Z</time>
      </trkpt>
      <trkpt lat="44.42005" lon="6.74346">
        <ele>1273.5</ele>
        <time>2021-06-25T15:55:15Z</time>
      </trkpt>
      <trkpt lat="44.41997" lon="6.7435">
        <ele>1274.7</ele>
        <time>2021-06-25T15:55:19Z</time>
      </trkpt>
      <trkpt lat="44.41988" lon="6.7435">
        <ele>1275</ele>
        <time>2021-06-25T15:55:23Z</time>
      </trkpt>
      <trkpt lat="44.4198" lon="6.7435">
        <ele>1275.3</ele>
        <time>2021-06-25T15:55:27Z</time>
      </trkpt>
      <trkpt lat="44.41971" lon="6.74349">
        <ele>1275.4</ele>
        <time>2021-06-25T15:55:31Z</time>
      </trkpt>
      <trkpt lat="44.41963" lon="6.74347">
        <ele>1275.2</ele>
        <time>2021-06-25T15:55:35Z</time>
      </trkpt>
      <trkpt lat="44.41954" lon="6.74344">
        <ele>1274.8</ele>
        <time>2021-06-25T15:55:39Z</time>
      </trkpt>
      <trkpt lat="44.41946" lon="6.74342">
        <ele>1274.8</ele>
        <time>2021-06-25T15:55:43Z</time>
      </trkpt>
      <trkpt lat="44.41938" lon="6.7434">
        <ele>1274.8</ele>
        <time>2021-06-25T15:55:47Z</time>
      </trkpt>
      <trkpt lat="44.4193" lon="6.74339">
        <ele>1275.1</ele>
        <time>2021-06-25T15:55:51Z</time>
      </trkpt>
      <trkpt lat="44.41923" lon="6.74337">
        <ele>1275.2</ele>
        <time>2021-06-25T15:55:55Z</time>
      </trkpt>
      <trkpt lat="44.41915" lon="6.74335">
        <ele>1275.2</ele>
        <time>2021-06-25T15:55:59Z</time>
      </trkpt>
      <trkpt lat="44.41906" lon="6.74334">
        <ele>1274.5</ele>
        <time>2021-06-25T15:56:03Z</time>
      </trkpt>
      <trkpt lat="44.41898" lon="6.74337">
        <ele>1274.5</ele>
        <time>2021-06-25T15:56:07Z</time>
      </trkpt>
      <trkpt lat="44.4189" lon="6.74339">
        <ele>1274.3</ele>
        <time>2021-06-25T15:56:11Z</time>
      </trkpt>
      <trkpt lat="44.41882" lon="6.74342">
        <ele>1274.4</ele>
        <time>2021-06-25T15:56:15Z</time>
      </trkpt>
      <trkpt lat="44.41875" lon="6.74345">
        <ele>1274.5</ele>
        <time>2021-06-25T15:56:19Z</time>
      </trkpt>
      <trkpt lat="44.41872" lon="6.74354">
        <ele>1275.9</ele>
        <time>2021-06-25T15:56:23Z</time>
      </trkpt>
      <trkpt lat="44.41875" lon="6.74361">
        <ele>1277.3</ele>
        <time>2021-06-25T15:56:27Z</time>
      </trkpt>
      <trkpt lat="44.41882" lon="6.74365">
        <ele>1278.3</ele>
        <time>2021-06-25T15:56:31Z</time>
      </trkpt>
      <trkpt lat="44.4189" lon="6.74368">
        <ele>1279.2</ele>
        <time>2021-06-25T15:56:35Z</time>
      </trkpt>
      <trkpt lat="44.41899" lon="6.74371">
        <ele>1280.1</ele>
        <time>2021-06-25T15:56:39Z</time>
      </trkpt>
      <trkpt lat="44.41908" lon="6.74375">
        <ele>1281.1</ele>
        <time>2021-06-25T15:56:43Z</time>
      </trkpt>
      <trkpt lat="44.41919" lon="6.74378">
        <ele>1282</ele>
        <time>2021-06-25T15:56:47Z</time>
      </trkpt>
      <trkpt lat="44.41928" lon="6.74382">
        <ele>1283</ele>
        <time>2021-06-25T15:56:51Z</time>
      </trkpt>
      <trkpt lat="44.41936" lon="6.74389">
        <ele>1284.6</ele>
        <time>2021-06-25T15:56:55Z</time>
      </trkpt>
      <trkpt lat="44.4194" lon="6.74397">
        <ele>1286.5</ele>
        <time>2021-06-25T15:56:59Z</time>
      </trkpt>
      <trkpt lat="44.41946" lon="6.74405">
        <ele>1288.6</ele>
        <time>2021-06-25T15:57:03Z</time>
      </trkpt>
      <trkpt lat="44.41953" lon="6.74411">
        <ele>1290.6</ele>
        <time>2021-06-25T15:57:07Z</time>
      </trkpt>
      <trkpt lat="44.4196" lon="6.74413">
        <ele>1291.8</ele>
        <time>2021-06-25T15:57:11Z</time>
      </trkpt>
      <trkpt lat="44.41968" lon="6.74414">
        <ele>1292.8</ele>
        <time>2021-06-25T15:57:15Z</time>
      </trkpt>
      <trkpt lat="44.41975" lon="6.74414">
        <ele>1293.5</ele>
        <time>2021-06-25T15:57:19Z</time>
      </trkpt>
      <trkpt lat="44.41982" lon="6.74416">
        <ele>1294.9</ele>
        <time>2021-06-25T15:57:23Z</time>
      </trkpt>
      <trkpt lat="44.4199" lon="6.74415">
        <ele>1295.4</ele>
        <time>2021-06-25T15:57:27Z</time>
      </trkpt>
      <trkpt lat="44.41997" lon="6.74413">
        <ele>1295.5</ele>
        <time>2021-06-25T15:57:31Z</time>
      </trkpt>
      <trkpt lat="44.42003" lon="6.74412">
        <ele>1295.6</ele>
        <time>2021-06-25T15:57:35Z</time>
      </trkpt>
      <trkpt lat="44.4201" lon="6.74412">
        <ele>1295.9</ele>
        <time>2021-06-25T15:57:39Z</time>
      </trkpt>
      <trkpt lat="44.42018" lon="6.74413">
        <ele>1296.6</ele>
        <time>2021-06-25T15:57:43Z</time>
      </trkpt>
      <trkpt lat="44.42027" lon="6.74414">
        <ele>1297.4</ele>
        <time>2021-06-25T15:57:47Z</time>
      </trkpt>
      <trkpt lat="44.42034" lon="6.74414">
        <ele>1297.7</ele>
        <time>2021-06-25T15:57:51Z</time>
      </trkpt>
      <trkpt lat="44.42042" lon="6.74415">
        <ele>1298.5</ele>
        <time>2021-06-25T15:57:55Z</time>
      </trkpt>
      <trkpt lat="44.4205" lon="6.74416">
        <ele>1299.2</ele>
        <time>2021-06-25T15:57:59Z</time>
      </trkpt>
      <trkpt lat="44.42058" lon="6.74416">
        <ele>1299.6</ele>
        <time>2021-06-25T15:58:03Z</time>
      </trkpt>
      <trkpt lat="44.42066" lon="6.74416">
        <ele>1300</ele>
        <time>2021-06-25T15:58:07Z</time>
      </trkpt>
      <trkpt lat="44.42074" lon="6.74417">
        <ele>1300.7</ele>
        <time>2021-06-25T15:58:11Z</time>
      </trkpt>
      <trkpt lat="44.42082" lon="6.74416">
        <ele>1300.7</ele>
        <time>2021-06-25T15:58:15Z</time>
      </trkpt>
      <trkpt lat="44.42091" lon="6.74415">
        <ele>1301.6</ele>
        <time>2021-06-25T15:58:19Z</time>
      </trkpt>
      <trkpt lat="44.42099" lon="6.74414">
        <ele>1302.6</ele>
        <time>2021-06-25T15:58:23Z</time>
      </trkpt>
      <trkpt lat="44.42106" lon="6.74415">
        <ele>1304</ele>
        <time>2021-06-25T15:58:27Z</time>
      </trkpt>
      <trkpt lat="44.42114" lon="6.74416">
        <ele>1305.6</ele>
        <time>2021-06-25T15:58:31Z</time>
      </trkpt>
      <trkpt lat="44.42122" lon="6.74416">
        <ele>1306.8</ele>
        <time>2021-06-25T15:58:35Z</time>
      </trkpt>
      <trkpt lat="44.42128" lon="6.74414">
        <ele>1307</ele>
        <time>2021-06-25T15:58:39Z</time>
      </trkpt>
      <trkpt lat="44.42133" lon="6.7442">
        <ele>1310.2</ele>
        <time>2021-06-25T15:58:43Z</time>
      </trkpt>
      <trkpt lat="44.4213" lon="6.74427">
        <ele>1312.7</ele>
        <time>2021-06-25T15:58:47Z</time>
      </trkpt>
      <trkpt lat="44.42122" lon="6.74429">
        <ele>1312.4</ele>
        <time>2021-06-25T15:58:51Z</time>
      </trkpt>
      <trkpt lat="44.42114" lon="6.74431">
        <ele>1312.1</ele>
        <time>2021-06-25T15:58:55Z</time>
      </trkpt>
      <trkpt lat="44.42107" lon="6.74433">
        <ele>1311.9</ele>
        <time>2021-06-25T15:58:59Z</time>
      </trkpt>
      <trkpt lat="44.42099" lon="6.74436">
        <ele>1312.1</ele>
        <time>2021-06-25T15:59:03Z</time>
      </trkpt>
      <trkpt lat="44.42091" lon="6.74439">
        <ele>1312.3</ele>
        <time>2021-06-25T15:59:07Z</time>
      </trkpt>
      <trkpt lat="44.42084" lon="6.74442">
        <ele>1312.6</ele>
        <time>2021-06-25T15:59:11Z</time>
      </trkpt>
      <trkpt lat="44.42078" lon="6.74443">
        <ele>1312.5</ele>
        <time>2021-06-25T15:59:15Z</time>
      </trkpt>
      <trkpt lat="44.42071" lon="6.74446">
        <ele>1313.2</ele>
        <time>2021-06-25T15:59:19Z</time>
      </trkpt>
      <trkpt lat="44.42064" lon="6.74447">
        <ele>1313</ele>
        <time>2021-06-25T15:59:23Z</time>
      </trkpt>
      <trkpt lat="44.42057" lon="6.74449">
        <ele>1313.1</ele>
        <time>2021-06-25T15:59:27Z</time>
      </trkpt>
      <trkpt lat="44.42051" lon="6.74451">
        <ele>1313.3</ele>
        <time>2021-06-25T15:59:31Z</time>
      </trkpt>
      <trkpt lat="44.42047" lon="6.74457">
        <ele>1315.3</ele>
        <time>2021-06-25T15:59:35Z</time>
      </trkpt>
      <trkpt lat="44.42052" lon="6.7446">
        <ele>1317.1</ele>
        <time>2021-06-25T15:59:39Z</time>
      </trkpt>
      <trkpt lat="44.42059" lon="6.74458">
        <ele>1317.1</ele>
        <time>2021-06-25T15:59:43Z</time>
      </trkpt>
      <trkpt lat="44.42066" lon="6.74458">
        <ele>1317.9</ele>
        <time>2021-06-25T15:59:47Z</time>
      </trkpt>
      <trkpt lat="44.42074" lon="6.7446">
        <ele>1319.7</ele>
        <time>2021-06-25T15:59:51Z</time>
      </trkpt>
      <trkpt lat="44.42082" lon="6.74461">
        <ele>1321.1</ele>
        <time>2021-06-25T15:59:55Z</time>
      </trkpt>
      <trkpt lat="44.4209" lon="6.74461">
        <ele>1322.1</ele>
        <time>2021-06-25T15:59:59Z</time>
      </trkpt>
      <trkpt lat="44.42098" lon="6.7446">
        <ele>1322.7</ele>
        <time>2021-06-25T16:00:03Z</time>
      </trkpt>
      <trkpt lat="44.42106" lon="6.74459">
        <ele>1323.3</ele>
        <time>2021-06-25T16:00:07Z</time>
      </trkpt>
      <trkpt lat="44.42114" lon="6.74458">
        <ele>1323.9</ele>
        <time>2021-06-25T16:00:11Z</time>
      </trkpt>
      <trkpt lat="44.42122" lon="6.74457">
        <ele>1324.5</ele>
        <time>2021-06-25T16:00:15Z</time>
      </trkpt>
      <trkpt lat="44.42129" lon="6.74455">
        <ele>1324.6</ele>
        <time>2021-06-25T16:00:19Z</time>
      </trkpt>
      <trkpt lat="44.42137" lon="6.74453">
        <ele>1324.8</ele>
        <time>2021-06-25T16:00:23Z</time>
      </trkpt>
      <trkpt lat="44.42145" lon="6.74452">
        <ele>1325.5</ele>
        <time>2021-06-25T16:00:27Z</time>
      </trkpt>
      <trkpt lat="44.42152" lon="6.7445">
        <ele>1325.6</ele>
        <time>2021-06-25T16:00:31Z</time>
      </trkpt>
      <trkpt lat="44.4216" lon="6.74449">
        <ele>1326.3</ele>
        <time>2021-06-25T16:00:35Z</time>
      </trkpt>
      <trkpt lat="44.42167" lon="6.74446">
        <ele>1326</ele>
        <time>2021-06-25T16:00:39Z</time>
      </trkpt>
      <trkpt lat="44.42175" lon="6.74445">
        <ele>1327.3</ele>
        <time>2021-06-25T16:00:43Z</time>
      </trkpt>
      <trkpt lat="44.42185" lon="6.74443">
        <ele>1328.5</ele>
        <time>2021-06-25T16:00:47Z</time>
      </trkpt>
      <trkpt lat="44.42193" lon="6.74439">
        <ele>1328.5</ele>
        <time>2021-06-25T16:00:51Z</time>
      </trkpt>
      <trkpt lat="44.42202" lon="6.74435">
        <ele>1328.6</ele>
        <time>2021-06-25T16:00:55Z</time>
      </trkpt>
      <trkpt lat="44.42211" lon="6.74429">
        <ele>1327.9</ele>
        <time>2021-06-25T16:00:59Z</time>
      </trkpt>
      <trkpt lat="44.42219" lon="6.74423">
        <ele>1326.8</ele>
        <time>2021-06-25T16:01:03Z</time>
      </trkpt>
      <trkpt lat="44.42225" lon="6.74417">
        <ele>1325.3</ele>
        <time>2021-06-25T16:01:07Z</time>
      </trkpt>
      <trkpt lat="44.42232" lon="6.74412">
        <ele>1324.9</ele>
        <time>2021-06-25T16:01:11Z</time>
      </trkpt>
      <trkpt lat="44.42239" lon="6.7441">
        <ele>1325.5</ele>
        <time>2021-06-25T16:01:15Z</time>
      </trkpt>
      <trkpt lat="44.42245" lon="6.74407">
        <ele>1325.6</ele>
        <time>2021-06-25T16:01:19Z</time>
      </trkpt>
      <trkpt lat="44.42251" lon="6.74405">
        <ele>1326.2</ele>
        <time>2021-06-25T16:01:23Z</time>
      </trkpt>
      <trkpt lat="44.42257" lon="6.74402">
        <ele>1327.3</ele>
        <time>2021-06-25T16:01:27Z</time>
      </trkpt>
      <trkpt lat="44.42263" lon="6.74402">
        <ele>1329.6</ele>
        <time>2021-06-25T16:01:31Z</time>
      </trkpt>
      <trkpt lat="44.42262" lon="6.74409">
        <ele>1331.9</ele>
        <time>2021-06-25T16:01:35Z</time>
      </trkpt>
      <trkpt lat="44.42257" lon="6.74412">
        <ele>1331</ele>
        <time>2021-06-25T16:01:39Z</time>
      </trkpt>
      <trkpt lat="44.42252" lon="6.74415">
        <ele>1330.2</ele>
        <time>2021-06-25T16:01:43Z</time>
      </trkpt>
      <trkpt lat="44.42247" lon="6.74419">
        <ele>1330.5</ele>
        <time>2021-06-25T16:01:47Z</time>
      </trkpt>
      <trkpt lat="44.42242" lon="6.74425">
        <ele>1332.2</ele>
        <time>2021-06-25T16:01:51Z</time>
      </trkpt>
      <trkpt lat="44.42237" lon="6.74431">
        <ele>1333.9</ele>
        <time>2021-06-25T16:01:55Z</time>
      </trkpt>
      <trkpt lat="44.42234" lon="6.74437">
        <ele>1336</ele>
        <time>2021-06-25T16:01:59Z</time>
      </trkpt>
      <trkpt lat="44.42229" lon="6.74446">
        <ele>1339</ele>
        <time>2021-06-25T16:02:03Z</time>
      </trkpt>
      <trkpt lat="44.42223" lon="6.74453">
        <ele>1340.8</ele>
        <time>2021-06-25T16:02:07Z</time>
      </trkpt>
      <trkpt lat="44.42216" lon="6.7446">
        <ele>1342.4</ele>
        <time>2021-06-25T16:02:11Z</time>
      </trkpt>
      <trkpt lat="44.42211" lon="6.74466">
        <ele>1343.9</ele>
        <time>2021-06-25T16:02:15Z</time>
      </trkpt>
      <trkpt lat="44.42206" lon="6.74472">
        <ele>1345.4</ele>
        <time>2021-06-25T16:02:19Z</time>
      </trkpt>
      <trkpt lat="44.42201" lon="6.74477">
        <ele>1346.4</ele>
        <time>2021-06-25T16:02:23Z</time>
      </trkpt>
      <trkpt lat="44.42195" lon="6.74483">
        <ele>1347.6</ele>
        <time>2021-06-25T16:02:27Z</time>
      </trkpt>
      <trkpt lat="44.42188" lon="6.74486">
        <ele>1347.2</ele>
        <time>2021-06-25T16:02:31Z</time>
      </trkpt>
      <trkpt lat="44.4218" lon="6.74489">
        <ele>1346.6</ele>
        <time>2021-06-25T16:02:35Z</time>
      </trkpt>
      <trkpt lat="44.42174" lon="6.74491">
        <ele>1346</ele>
        <time>2021-06-25T16:02:39Z</time>
      </trkpt>
      <trkpt lat="44.42167" lon="6.74492">
        <ele>1344.8</ele>
        <time>2021-06-25T16:02:43Z</time>
      </trkpt>
      <trkpt lat="44.4216" lon="6.74494">
        <ele>1344.8</ele>
        <time>2021-06-25T16:02:47Z</time>
      </trkpt>
      <trkpt lat="44.42154" lon="6.74496">
        <ele>1345</ele>
        <time>2021-06-25T16:02:51Z</time>
      </trkpt>
      <trkpt lat="44.42148" lon="6.74496">
        <ele>1344.3</ele>
        <time>2021-06-25T16:02:55Z</time>
      </trkpt>
      <trkpt lat="44.42142" lon="6.74497">
        <ele>1344.1</ele>
        <time>2021-06-25T16:02:59Z</time>
      </trkpt>
      <trkpt lat="44.42137" lon="6.74503">
        <ele>1346.1</ele>
        <time>2021-06-25T16:03:03Z</time>
      </trkpt>
      <trkpt lat="44.42132" lon="6.74506">
        <ele>1346.9</ele>
        <time>2021-06-25T16:03:07Z</time>
      </trkpt>
      <trkpt lat="44.42125" lon="6.74511">
        <ele>1348.3</ele>
        <time>2021-06-25T16:03:11Z</time>
      </trkpt>
      <trkpt lat="44.42118" lon="6.74515">
        <ele>1349.3</ele>
        <time>2021-06-25T16:03:15Z</time>
      </trkpt>
      <trkpt lat="44.42113" lon="6.74522">
        <ele>1351.7</ele>
        <time>2021-06-25T16:03:19Z</time>
      </trkpt>
      <trkpt lat="44.42116" lon="6.74527">
        <ele>1354.2</ele>
        <time>2021-06-25T16:03:23Z</time>
      </trkpt>
      <trkpt lat="44.4212" lon="6.74524">
        <ele>1353.4</ele>
        <time>2021-06-25T16:03:27Z</time>
      </trkpt>
      <trkpt lat="44.42125" lon="6.74523">
        <ele>1353.6</ele>
        <time>2021-06-25T16:03:31Z</time>
      </trkpt>
      <trkpt lat="44.4213" lon="6.74523">
        <ele>1354.2</ele>
        <time>2021-06-25T16:03:35Z</time>
      </trkpt>
      <trkpt lat="44.42135" lon="6.74523">
        <ele>1354.8</ele>
        <time>2021-06-25T16:03:39Z</time>
      </trkpt>
      <trkpt lat="44.42139" lon="6.74523">
        <ele>1355.2</ele>
        <time>2021-06-25T16:03:43Z</time>
      </trkpt>
      <trkpt lat="44.42144" lon="6.74524">
        <ele>1356.3</ele>
        <time>2021-06-25T16:03:47Z</time>
      </trkpt>
      <trkpt lat="44.4215" lon="6.74524">
        <ele>1357</ele>
        <time>2021-06-25T16:03:51Z</time>
      </trkpt>
      <trkpt lat="44.42155" lon="6.74527">
        <ele>1358.9</ele>
        <time>2021-06-25T16:03:55Z</time>
      </trkpt>
      <trkpt lat="44.42161" lon="6.74531">
        <ele>1361.4</ele>
        <time>2021-06-25T16:03:59Z</time>
      </trkpt>
      <trkpt lat="44.42163" lon="6.74536">
        <ele>1364</ele>
        <time>2021-06-25T16:04:03Z</time>
      </trkpt>
      <trkpt lat="44.4216" lon="6.74541">
        <ele>1365.9</ele>
        <time>2021-06-25T16:04:07Z</time>
      </trkpt>
      <trkpt lat="44.42154" lon="6.74539">
        <ele>1364.2</ele>
        <time>2021-06-25T16:04:11Z</time>
      </trkpt>
      <trkpt lat="44.42149" lon="6.74539">
        <ele>1363.6</ele>
        <time>2021-06-25T16:04:15Z</time>
      </trkpt>
      <trkpt lat="44.42144" lon="6.74538">
        <ele>1362.5</ele>
        <time>2021-06-25T16:04:19Z</time>
      </trkpt>
      <trkpt lat="44.42135" lon="6.7454">
        <ele>1362.3</ele>
        <time>2021-06-25T16:04:23Z</time>
      </trkpt>
      <trkpt lat="44.42124" lon="6.74543">
        <ele>1362.2</ele>
        <time>2021-06-25T16:04:27Z</time>
      </trkpt>
      <trkpt lat="44.42112" lon="6.74547">
        <ele>1362.4</ele>
        <time>2021-06-25T16:04:31Z</time>
      </trkpt>
      <trkpt lat="44.421" lon="6.74551">
        <ele>1362.6</ele>
        <time>2021-06-25T16:04:35Z</time>
      </trkpt>
      <trkpt lat="44.42087" lon="6.74556">
        <ele>1363</ele>
        <time>2021-06-25T16:04:39Z</time>
      </trkpt>
      <trkpt lat="44.42075" lon="6.7456">
        <ele>1362.4</ele>
        <time>2021-06-25T16:04:43Z</time>
      </trkpt>
      <trkpt lat="44.42061" lon="6.74565">
        <ele>1361.4</ele>
        <time>2021-06-25T16:04:47Z</time>
      </trkpt>
      <trkpt lat="44.42048" lon="6.74572">
        <ele>1361.4</ele>
        <time>2021-06-25T16:04:51Z</time>
      </trkpt>
      <trkpt lat="44.42037" lon="6.74581">
        <ele>1362.5</ele>
        <time>2021-06-25T16:04:55Z</time>
      </trkpt>
      <trkpt lat="44.42029" lon="6.74591">
        <ele>1364.2</ele>
        <time>2021-06-25T16:04:59Z</time>
      </trkpt>
      <trkpt lat="44.42022" lon="6.74601">
        <ele>1366</ele>
        <time>2021-06-25T16:05:03Z</time>
      </trkpt>
      <trkpt lat="44.42014" lon="6.74609">
        <ele>1366.9</ele>
        <time>2021-06-25T16:05:07Z</time>
      </trkpt>
      <trkpt lat="44.42006" lon="6.74616">
        <ele>1367.4</ele>
        <time>2021-06-25T16:05:11Z</time>
      </trkpt>
      <trkpt lat="44.42" lon="6.74621">
        <ele>1367.7</ele>
        <time>2021-06-25T16:05:15Z</time>
      </trkpt>
      <trkpt lat="44.41994" lon="6.74628">
        <ele>1368.9</ele>
        <time>2021-06-25T16:05:19Z</time>
      </trkpt>
      <trkpt lat="44.41988" lon="6.74635">
        <ele>1370.2</ele>
        <time>2021-06-25T16:05:23Z</time>
      </trkpt>
      <trkpt lat="44.41983" lon="6.74642">
        <ele>1371.6</ele>
        <time>2021-06-25T16:05:27Z</time>
      </trkpt>
      <trkpt lat="44.41978" lon="6.74648">
        <ele>1372.6</ele>
        <time>2021-06-25T16:05:31Z</time>
      </trkpt>
      <trkpt lat="44.41971" lon="6.74653">
        <ele>1373</ele>
        <time>2021-06-25T16:05:35Z</time>
      </trkpt>
      <trkpt lat="44.41964" lon="6.74658">
        <ele>1373.3</ele>
        <time>2021-06-25T16:05:39Z</time>
      </trkpt>
      <trkpt lat="44.41958" lon="6.74659">
        <ele>1372.5</ele>
        <time>2021-06-25T16:05:43Z</time>
      </trkpt>
      <trkpt lat="44.41954" lon="6.74666">
        <ele>1374</ele>
        <time>2021-06-25T16:05:47Z</time>
      </trkpt>
      <trkpt lat="44.41957" lon="6.74673">
        <ele>1376.7</ele>
        <time>2021-06-25T16:05:51Z</time>
      </trkpt>
      <trkpt lat="44.41963" lon="6.74671">
        <ele>1377.3</ele>
        <time>2021-06-25T16:05:55Z</time>
      </trkpt>
      <trkpt lat="44.41969" lon="6.7467">
        <ele>1378.1</ele>
        <time>2021-06-25T16:05:59Z</time>
      </trkpt>
      <trkpt lat="44.41975" lon="6.7467">
        <ele>1379.3</ele>
        <time>2021-06-25T16:06:03Z</time>
      </trkpt>
      <trkpt lat="44.41982" lon="6.7467">
        <ele>1380.6</ele>
        <time>2021-06-25T16:06:07Z</time>
      </trkpt>
      <trkpt lat="44.41985" lon="6.74669">
        <ele>1380.9</ele>
        <time>2021-06-25T16:06:11Z</time>
      </trkpt>
      <trkpt lat="44.41991" lon="6.74668">
        <ele>1381.7</ele>
        <time>2021-06-25T16:06:15Z</time>
      </trkpt>
      <trkpt lat="44.41996" lon="6.74666">
        <ele>1382</ele>
        <time>2021-06-25T16:06:19Z</time>
      </trkpt>
      <trkpt lat="44.42002" lon="6.74665">
        <ele>1382.9</ele>
        <time>2021-06-25T16:06:23Z</time>
      </trkpt>
      <trkpt lat="44.42007" lon="6.74663">
        <ele>1383.4</ele>
        <time>2021-06-25T16:06:27Z</time>
      </trkpt>
      <trkpt lat="44.42012" lon="6.74661">
        <ele>1384</ele>
        <time>2021-06-25T16:06:31Z</time>
      </trkpt>
      <trkpt lat="44.42016" lon="6.74659">
        <ele>1384.2</ele>
        <time>2021-06-25T16:06:35Z</time>
      </trkpt>
      <trkpt lat="44.42025" lon="6.7466">
        <ele>1386.7</ele>
        <time>2021-06-25T16:06:39Z</time>
      </trkpt>
      <trkpt lat="44.42031" lon="6.74659">
        <ele>1387.8</ele>
        <time>2021-06-25T16:06:43Z</time>
      </trkpt>
      <trkpt lat="44.42037" lon="6.74656">
        <ele>1388.2</ele>
        <time>2021-06-25T16:06:47Z</time>
      </trkpt>
      <trkpt lat="44.42043" lon="6.74656">
        <ele>1389.7</ele>
        <time>2021-06-25T16:06:51Z</time>
      </trkpt>
      <trkpt lat="44.42049" lon="6.74656">
        <ele>1391.1</ele>
        <time>2021-06-25T16:06:55Z</time>
      </trkpt>
      <trkpt lat="44.42055" lon="6.74656">
        <ele>1392.5</ele>
        <time>2021-06-25T16:06:59Z</time>
      </trkpt>
      <trkpt lat="44.42061" lon="6.74655">
        <ele>1393.6</ele>
        <time>2021-06-25T16:07:03Z</time>
      </trkpt>
      <trkpt lat="44.42066" lon="6.74654">
        <ele>1394.5</ele>
        <time>2021-06-25T16:07:07Z</time>
      </trkpt>
      <trkpt lat="44.42072" lon="6.74652">
        <ele>1395.2</ele>
        <time>2021-06-25T16:07:11Z</time>
      </trkpt>
      <trkpt lat="44.42078" lon="6.74653">
        <ele>1397</ele>
        <time>2021-06-25T16:07:15Z</time>
      </trkpt>
      <trkpt lat="44.42084" lon="6.74652">
        <ele>1398</ele>
        <time>2021-06-25T16:07:19Z</time>
      </trkpt>
      <trkpt lat="44.42088" lon="6.74654">
        <ele>1399.5</ele>
        <time>2021-06-25T16:07:23Z</time>
      </trkpt>
      <trkpt lat="44.42083" lon="6.74658">
        <ele>1399.9</ele>
        <time>2021-06-25T16:07:27Z</time>
      </trkpt>
      <trkpt lat="44.42077" lon="6.74659">
        <ele>1398.8</ele>
        <time>2021-06-25T16:07:31Z</time>
      </trkpt>
      <trkpt lat="44.42066" lon="6.74662">
        <ele>1397.2</ele>
        <time>2021-06-25T16:07:35Z</time>
      </trkpt>
      <trkpt lat="44.42059" lon="6.74666">
        <ele>1396.9</ele>
        <time>2021-06-25T16:07:39Z</time>
      </trkpt>
      <trkpt lat="44.42051" lon="6.74671">
        <ele>1396.6</ele>
        <time>2021-06-25T16:07:43Z</time>
      </trkpt>
      <trkpt lat="44.42044" lon="6.74675">
        <ele>1396.2</ele>
        <time>2021-06-25T16:07:47Z</time>
      </trkpt>
      <trkpt lat="44.42036" lon="6.74677">
        <ele>1394.9</ele>
        <time>2021-06-25T16:07:51Z</time>
      </trkpt>
      <trkpt lat="44.42027" lon="6.74681">
        <ele>1394.1</ele>
        <time>2021-06-25T16:07:55Z</time>
      </trkpt>
      <trkpt lat="44.4202" lon="6.74686">
        <ele>1394</ele>
        <time>2021-06-25T16:07:59Z</time>
      </trkpt>
      <trkpt lat="44.42011" lon="6.7469">
        <ele>1393.2</ele>
        <time>2021-06-25T16:08:03Z</time>
      </trkpt>
      <trkpt lat="44.42003" lon="6.74698">
        <ele>1393.9</ele>
        <time>2021-06-25T16:08:07Z</time>
      </trkpt>
      <trkpt lat="44.41991" lon="6.74705">
        <ele>1393.6</ele>
        <time>2021-06-25T16:08:11Z</time>
      </trkpt>
      <trkpt lat="44.41983" lon="6.74709">
        <ele>1393.2</ele>
        <time>2021-06-25T16:08:15Z</time>
      </trkpt>
      <trkpt lat="44.41977" lon="6.74716">
        <ele>1394.2</ele>
        <time>2021-06-25T16:08:19Z</time>
      </trkpt>
      <trkpt lat="44.41968" lon="6.74719">
        <ele>1393.3</ele>
        <time>2021-06-25T16:08:23Z</time>
      </trkpt>
      <trkpt lat="44.41961" lon="6.74725">
        <ele>1393.8</ele>
        <time>2021-06-25T16:08:27Z</time>
      </trkpt>
      <trkpt lat="44.41954" lon="6.74725">
        <ele>1392.3</ele>
        <time>2021-06-25T16:08:31Z</time>
      </trkpt>
      <trkpt lat="44.4195" lon="6.74729">
        <ele>1392.7</ele>
        <time>2021-06-25T16:08:35Z</time>
      </trkpt>
      <trkpt lat="44.41939" lon="6.74731">
        <ele>1391</ele>
        <time>2021-06-25T16:08:39Z</time>
      </trkpt>
      <trkpt lat="44.41929" lon="6.74735">
        <ele>1390.1</ele>
        <time>2021-06-25T16:08:43Z</time>
      </trkpt>
      <trkpt lat="44.41918" lon="6.74737">
        <ele>1388.4</ele>
        <time>2021-06-25T16:08:47Z</time>
      </trkpt>
      <trkpt lat="44.41909" lon="6.7474">
        <ele>1388.2</ele>
        <time>2021-06-25T16:08:51Z</time>
      </trkpt>
      <trkpt lat="44.41896" lon="6.74744">
        <ele>1387.9</ele>
        <time>2021-06-25T16:08:55Z</time>
      </trkpt>
      <trkpt lat="44.41885" lon="6.74749">
        <ele>1387.9</ele>
        <time>2021-06-25T16:08:59Z</time>
      </trkpt>
      <trkpt lat="44.41874" lon="6.74756">
        <ele>1388.3</ele>
        <time>2021-06-25T16:09:03Z</time>
      </trkpt>
      <trkpt lat="44.41863" lon="6.74764">
        <ele>1388.7</ele>
        <time>2021-06-25T16:09:07Z</time>
      </trkpt>
      <trkpt lat="44.41853" lon="6.74778">
        <ele>1390.3</ele>
        <time>2021-06-25T16:09:11Z</time>
      </trkpt>
      <trkpt lat="44.41847" lon="6.74795">
        <ele>1392.7</ele>
        <time>2021-06-25T16:09:15Z</time>
      </trkpt>
      <trkpt lat="44.41842" lon="6.74812">
        <ele>1395.1</ele>
        <time>2021-06-25T16:09:19Z</time>
      </trkpt>
      <trkpt lat="44.41835" lon="6.74828">
        <ele>1396.4</ele>
        <time>2021-06-25T16:09:23Z</time>
      </trkpt>
      <trkpt lat="44.4183" lon="6.74836">
        <ele>1396.4</ele>
        <time>2021-06-25T16:09:27Z</time>
      </trkpt>
      <trkpt lat="44.41823" lon="6.74842">
        <ele>1395.2</ele>
        <time>2021-06-25T16:09:31Z</time>
      </trkpt>
      <trkpt lat="44.41828" lon="6.74849">
        <ele>1397</ele>
        <time>2021-06-25T16:09:35Z</time>
      </trkpt>
      <trkpt lat="44.41828" lon="6.74858">
        <ele>1397.6</ele>
        <time>2021-06-25T16:09:39Z</time>
      </trkpt>
      <trkpt lat="44.41827" lon="6.74872">
        <ele>1398.4</ele>
        <time>2021-06-25T16:09:43Z</time>
      </trkpt>
      <trkpt lat="44.41824" lon="6.74887">
        <ele>1398.5</ele>
        <time>2021-06-25T16:09:47Z</time>
      </trkpt>
      <trkpt lat="44.41824" lon="6.74902">
        <ele>1399.5</ele>
        <time>2021-06-25T16:09:51Z</time>
      </trkpt>
      <trkpt lat="44.41823" lon="6.74909">
        <ele>1399.6</ele>
        <time>2021-06-25T16:09:55Z</time>
      </trkpt>
      <trkpt lat="44.41822" lon="6.74915">
        <ele>1399.7</ele>
        <time>2021-06-25T16:09:59Z</time>
      </trkpt>
      <trkpt lat="44.41821" lon="6.74927">
        <ele>1400.5</ele>
        <time>2021-06-25T16:10:03Z</time>
      </trkpt>
      <trkpt lat="44.41818" lon="6.74947">
        <ele>1401.3</ele>
        <time>2021-06-25T16:10:07Z</time>
      </trkpt>
      <trkpt lat="44.41814" lon="6.74968">
        <ele>1401.5</ele>
        <time>2021-06-25T16:10:11Z</time>
      </trkpt>
      <trkpt lat="44.41805" lon="6.74985">
        <ele>1398.9</ele>
        <time>2021-06-25T16:10:15Z</time>
      </trkpt>
      <trkpt lat="44.418" lon="6.75001">
        <ele>1397.8</ele>
        <time>2021-06-25T16:10:19Z</time>
      </trkpt>
      <trkpt lat="44.41795" lon="6.75013">
        <ele>1397.5</ele>
        <time>2021-06-25T16:10:27Z</time>
      </trkpt>
      <trkpt lat="44.4179" lon="6.75017">
        <ele>1395.6</ele>
        <time>2021-06-25T16:10:43Z</time>
      </trkpt>
      <trkpt lat="44.41787" lon="6.7502">
        <ele>1394.6</ele>
        <time>2021-06-25T16:10:47Z</time>
      </trkpt>
      <trkpt lat="44.41786" lon="6.75024">
        <ele>1394.7</ele>
        <time>2021-06-25T16:10:51Z</time>
      </trkpt>
      <trkpt lat="44.41785" lon="6.75026">
        <ele>1394.5</ele>
        <time>2021-06-25T16:10:55Z</time>
      </trkpt>
      <trkpt lat="44.41785" lon="6.75032">
        <ele>1395.5</ele>
        <time>2021-06-25T16:10:59Z</time>
      </trkpt>
      <trkpt lat="44.41781" lon="6.75039">
        <ele>1394.5</ele>
        <time>2021-06-25T16:11:03Z</time>
      </trkpt>
      <trkpt lat="44.41774" lon="6.75049">
        <ele>1392.2</ele>
        <time>2021-06-25T16:11:07Z</time>
      </trkpt>
      <trkpt lat="44.41767" lon="6.75062">
        <ele>1390.2</ele>
        <time>2021-06-25T16:11:11Z</time>
      </trkpt>
      <trkpt lat="44.41761" lon="6.75074">
        <ele>1388.3</ele>
        <time>2021-06-25T16:11:15Z</time>
      </trkpt>
      <trkpt lat="44.41754" lon="6.75084">
        <ele>1385.6</ele>
        <time>2021-06-25T16:11:19Z</time>
      </trkpt>
      <trkpt lat="44.41751" lon="6.75097">
        <ele>1387</ele>
        <time>2021-06-25T16:11:23Z</time>
      </trkpt>
      <trkpt lat="44.41744" lon="6.75108">
        <ele>1386.1</ele>
        <time>2021-06-25T16:11:27Z</time>
      </trkpt>
      <trkpt lat="44.41734" lon="6.75114">
        <ele>1382.2</ele>
        <time>2021-06-25T16:11:31Z</time>
      </trkpt>
      <trkpt lat="44.41725" lon="6.75118">
        <ele>1378.2</ele>
        <time>2021-06-25T16:11:35Z</time>
      </trkpt>
      <trkpt lat="44.41717" lon="6.7513">
        <ele>1375.9</ele>
        <time>2021-06-25T16:11:39Z</time>
      </trkpt>
      <trkpt lat="44.41712" lon="6.75144">
        <ele>1375.3</ele>
        <time>2021-06-25T16:11:43Z</time>
      </trkpt>
      <trkpt lat="44.41708" lon="6.75159">
        <ele>1375.1</ele>
        <time>2021-06-25T16:11:47Z</time>
      </trkpt>
      <trkpt lat="44.4171" lon="6.7517">
        <ele>1377.5</ele>
        <time>2021-06-25T16:11:51Z</time>
      </trkpt>
      <trkpt lat="44.41709" lon="6.75178">
        <ele>1376.7</ele>
        <time>2021-06-25T16:11:55Z</time>
      </trkpt>
      <trkpt lat="44.4171" lon="6.75182">
        <ele>1377.4</ele>
        <time>2021-06-25T16:11:59Z</time>
      </trkpt>
      <trkpt lat="44.4171" lon="6.75188">
        <ele>1377.3</ele>
        <time>2021-06-25T16:12:03Z</time>
      </trkpt>
      <trkpt lat="44.41711" lon="6.7519">
        <ele>1377.9</ele>
        <time>2021-06-25T16:12:07Z</time>
      </trkpt>
      <trkpt lat="44.41714" lon="6.75195">
        <ele>1379.9</ele>
        <time>2021-06-25T16:12:11Z</time>
      </trkpt>
      <trkpt lat="44.41714" lon="6.75199">
        <ele>1379.9</ele>
        <time>2021-06-25T16:12:15Z</time>
      </trkpt>
      <trkpt lat="44.41715" lon="6.75203">
        <ele>1380.6</ele>
        <time>2021-06-25T16:12:19Z</time>
      </trkpt>
      <trkpt lat="44.41718" lon="6.75209">
        <ele>1382.6</ele>
        <time>2021-06-25T16:12:23Z</time>
      </trkpt>
      <trkpt lat="44.41719" lon="6.75215">
        <ele>1383.3</ele>
        <time>2021-06-25T16:12:27Z</time>
      </trkpt>
      <trkpt lat="44.41722" lon="6.75217">
        <ele>1385.5</ele>
        <time>2021-06-25T16:12:31Z</time>
      </trkpt>
      <trkpt lat="44.41726" lon="6.7522">
        <ele>1388.4</ele>
        <time>2021-06-25T16:12:35Z</time>
      </trkpt>
      <trkpt lat="44.41729" lon="6.75221">
        <ele>1390.6</ele>
        <time>2021-06-25T16:12:39Z</time>
      </trkpt>
      <trkpt lat="44.41732" lon="6.75224">
        <ele>1392.8</ele>
        <time>2021-06-25T16:12:43Z</time>
      </trkpt>
      <trkpt lat="44.4173" lon="6.75228">
        <ele>1391.4</ele>
        <time>2021-06-25T16:12:47Z</time>
      </trkpt>
      <trkpt lat="44.4173" lon="6.75234">
        <ele>1391.5</ele>
        <time>2021-06-25T16:12:51Z</time>
      </trkpt>
      <trkpt lat="44.41731" lon="6.75238">
        <ele>1392.3</ele>
        <time>2021-06-25T16:12:55Z</time>
      </trkpt>
      <trkpt lat="44.41731" lon="6.75241">
        <ele>1392.3</ele>
        <time>2021-06-25T16:12:59Z</time>
      </trkpt>
      <trkpt lat="44.41733" lon="6.75245">
        <ele>1393.9</ele>
        <time>2021-06-25T16:13:03Z</time>
      </trkpt>
      <trkpt lat="44.41734" lon="6.75249">
        <ele>1394.7</ele>
        <time>2021-06-25T16:13:07Z</time>
      </trkpt>
      <trkpt lat="44.41735" lon="6.75254">
        <ele>1394.8</ele>
        <time>2021-06-25T16:13:11Z</time>
      </trkpt>
      <trkpt lat="44.41735" lon="6.75255">
        <ele>1394.7</ele>
        <time>2021-06-25T16:13:19Z</time>
      </trkpt>
      <trkpt lat="44.41736" lon="6.75263">
        <ele>1394.1</ele>
        <time>2021-06-25T16:13:23Z</time>
      </trkpt>
      <trkpt lat="44.41739" lon="6.75271">
        <ele>1395</ele>
        <time>2021-06-25T16:13:27Z</time>
      </trkpt>
      <trkpt lat="44.41743" lon="6.75278">
        <ele>1396.8</ele>
        <time>2021-06-25T16:13:31Z</time>
      </trkpt>
      <trkpt lat="44.41746" lon="6.75286">
        <ele>1397.6</ele>
        <time>2021-06-25T16:13:35Z</time>
      </trkpt>
      <trkpt lat="44.41747" lon="6.75297">
        <ele>1396.4</ele>
        <time>2021-06-25T16:13:39Z</time>
      </trkpt>
      <trkpt lat="44.41751" lon="6.75307">
        <ele>1397.5</ele>
        <time>2021-06-25T16:13:43Z</time>
      </trkpt>
      <trkpt lat="44.41754" lon="6.75315">
        <ele>1398.4</ele>
        <time>2021-06-25T16:13:47Z</time>
      </trkpt>
      <trkpt lat="44.41756" lon="6.75328">
        <ele>1397.8</ele>
        <time>2021-06-25T16:13:51Z</time>
      </trkpt>
      <trkpt lat="44.41758" lon="6.75339">
        <ele>1398.2</ele>
        <time>2021-06-25T16:13:55Z</time>
      </trkpt>
      <trkpt lat="44.41764" lon="6.75354">
        <ele>1401.9</ele>
        <time>2021-06-25T16:13:59Z</time>
      </trkpt>
      <trkpt lat="44.41768" lon="6.75369">
        <ele>1403.8</ele>
        <time>2021-06-25T16:14:03Z</time>
      </trkpt>
      <trkpt lat="44.4177" lon="6.75387">
        <ele>1403.7</ele>
        <time>2021-06-25T16:14:07Z</time>
      </trkpt>
      <trkpt lat="44.41769" lon="6.75401">
        <ele>1401.8</ele>
        <time>2021-06-25T16:14:11Z</time>
      </trkpt>
      <trkpt lat="44.41769" lon="6.75415">
        <ele>1400.7</ele>
        <time>2021-06-25T16:14:15Z</time>
      </trkpt>
      <trkpt lat="44.41769" lon="6.75429">
        <ele>1400.1</ele>
        <time>2021-06-25T16:14:19Z</time>
      </trkpt>
      <trkpt lat="44.41773" lon="6.75439">
        <ele>1402.4</ele>
        <time>2021-06-25T16:14:23Z</time>
      </trkpt>
      <trkpt lat="44.41776" lon="6.75448">
        <ele>1404</ele>
        <time>2021-06-25T16:14:27Z</time>
      </trkpt>
      <trkpt lat="44.41776" lon="6.75461">
        <ele>1403.6</ele>
        <time>2021-06-25T16:14:31Z</time>
      </trkpt>
      <trkpt lat="44.41778" lon="6.75477">
        <ele>1404.3</ele>
        <time>2021-06-25T16:14:35Z</time>
      </trkpt>
      <trkpt lat="44.41778" lon="6.75488">
        <ele>1403.9</ele>
        <time>2021-06-25T16:14:39Z</time>
      </trkpt>
      <trkpt lat="44.41777" lon="6.75494">
        <ele>1403</ele>
        <time>2021-06-25T16:14:47Z</time>
      </trkpt>
      <trkpt lat="44.41777" lon="6.75504">
        <ele>1402.7</ele>
        <time>2021-06-25T16:14:51Z</time>
      </trkpt>
      <trkpt lat="44.41776" lon="6.75516">
        <ele>1401.6</ele>
        <time>2021-06-25T16:14:55Z</time>
      </trkpt>
      <trkpt lat="44.41777" lon="6.7553">
        <ele>1401.8</ele>
        <time>2021-06-25T16:14:59Z</time>
      </trkpt>
      <trkpt lat="44.41775" lon="6.75542">
        <ele>1400</ele>
        <time>2021-06-25T16:15:03Z</time>
      </trkpt>
      <trkpt lat="44.41774" lon="6.75557">
        <ele>1398.9</ele>
        <time>2021-06-25T16:15:07Z</time>
      </trkpt>
      <trkpt lat="44.41774" lon="6.7557">
        <ele>1398.4</ele>
        <time>2021-06-25T16:15:11Z</time>
      </trkpt>
      <trkpt lat="44.41775" lon="6.75586">
        <ele>1398.2</ele>
        <time>2021-06-25T16:15:15Z</time>
      </trkpt>
      <trkpt lat="44.41776" lon="6.75599">
        <ele>1396.9</ele>
        <time>2021-06-25T16:15:19Z</time>
      </trkpt>
      <trkpt lat="44.41781" lon="6.75613">
        <ele>1398.2</ele>
        <time>2021-06-25T16:15:23Z</time>
      </trkpt>
      <trkpt lat="44.41788" lon="6.75626">
        <ele>1401.3</ele>
        <time>2021-06-25T16:15:27Z</time>
      </trkpt>
      <trkpt lat="44.41795" lon="6.75637">
        <ele>1404.9</ele>
        <time>2021-06-25T16:15:31Z</time>
      </trkpt>
      <trkpt lat="44.41799" lon="6.75649">
        <ele>1406.5</ele>
        <time>2021-06-25T16:15:35Z</time>
      </trkpt>
      <trkpt lat="44.41803" lon="6.75657">
        <ele>1408.7</ele>
        <time>2021-06-25T16:15:39Z</time>
      </trkpt>
      <trkpt lat="44.41808" lon="6.75665">
        <ele>1411.7</ele>
        <time>2021-06-25T16:15:43Z</time>
      </trkpt>
      <trkpt lat="44.41814" lon="6.75675">
        <ele>1416.1</ele>
        <time>2021-06-25T16:15:47Z</time>
      </trkpt>
      <trkpt lat="44.41819" lon="6.75687">
        <ele>1420.2</ele>
        <time>2021-06-25T16:15:51Z</time>
      </trkpt>
      <trkpt lat="44.41822" lon="6.75701">
        <ele>1423.1</ele>
        <time>2021-06-25T16:15:55Z</time>
      </trkpt>
      <trkpt lat="44.41823" lon="6.75717">
        <ele>1424.5</ele>
        <time>2021-06-25T16:15:59Z</time>
      </trkpt>
      <trkpt lat="44.41824" lon="6.75727">
        <ele>1425.8</ele>
        <time>2021-06-25T16:16:03Z</time>
      </trkpt>
      <trkpt lat="44.41826" lon="6.75733">
        <ele>1428.1</ele>
        <time>2021-06-25T16:16:07Z</time>
      </trkpt>
      <trkpt lat="44.41828" lon="6.75735">
        <ele>1430.3</ele>
        <time>2021-06-25T16:16:15Z</time>
      </trkpt>
      <trkpt lat="44.41826" lon="6.75745">
        <ele>1428.6</ele>
        <time>2021-06-25T16:16:19Z</time>
      </trkpt>
      <trkpt lat="44.41826" lon="6.75755">
        <ele>1428.3</ele>
        <time>2021-06-25T16:16:23Z</time>
      </trkpt>
      <trkpt lat="44.41825" lon="6.75766">
        <ele>1426</ele>
        <time>2021-06-25T16:16:27Z</time>
      </trkpt>
      <trkpt lat="44.41829" lon="6.75775">
        <ele>1429.5</ele>
        <time>2021-06-25T16:16:31Z</time>
      </trkpt>
      <trkpt lat="44.41833" lon="6.75791">
        <ele>1432.2</ele>
        <time>2021-06-25T16:16:35Z</time>
      </trkpt>
      <trkpt lat="44.41833" lon="6.75806">
        <ele>1430.6</ele>
        <time>2021-06-25T16:16:39Z</time>
      </trkpt>
      <trkpt lat="44.41819" lon="6.75813">
        <ele>1414.6</ele>
        <time>2021-06-25T16:16:43Z</time>
      </trkpt>
      <trkpt lat="44.41817" lon="6.75805">
        <ele>1413.2</ele>
        <time>2021-06-25T16:16:47Z</time>
      </trkpt>
      <trkpt lat="44.41819" lon="6.75784">
        <ele>1417.5</ele>
        <time>2021-06-25T16:16:51Z</time>
      </trkpt>
      <trkpt lat="44.41815" lon="6.75769">
        <ele>1414.6</ele>
        <time>2021-06-25T16:16:55Z</time>
      </trkpt>
      <trkpt lat="44.41812" lon="6.75755">
        <ele>1412.7</ele>
        <time>2021-06-25T16:16:59Z</time>
      </trkpt>
      <trkpt lat="44.4181" lon="6.75735">
        <ele>1411.3</ele>
        <time>2021-06-25T16:17:03Z</time>
      </trkpt>
      <trkpt lat="44.41802" lon="6.7571">
        <ele>1404.4</ele>
        <time>2021-06-25T16:17:07Z</time>
      </trkpt>
      <trkpt lat="44.41787" lon="6.75689">
        <ele>1392.7</ele>
        <time>2021-06-25T16:17:11Z</time>
      </trkpt>
      <trkpt lat="44.41775" lon="6.75679">
        <ele>1384.1</ele>
        <time>2021-06-25T16:17:15Z</time>
      </trkpt>
      <trkpt lat="44.41763" lon="6.75661">
        <ele>1377.9</ele>
        <time>2021-06-25T16:17:19Z</time>
      </trkpt>
      <trkpt lat="44.41749" lon="6.75648">
        <ele>1370</ele>
        <time>2021-06-25T16:17:23Z</time>
      </trkpt>
      <trkpt lat="44.41736" lon="6.75627">
        <ele>1366.6</ele>
        <time>2021-06-25T16:17:27Z</time>
      </trkpt>
      <trkpt lat="44.4172" lon="6.75601">
        <ele>1362.4</ele>
        <time>2021-06-25T16:17:31Z</time>
      </trkpt>
      <trkpt lat="44.41709" lon="6.75579">
        <ele>1359.6</ele>
        <time>2021-06-25T16:17:35Z</time>
      </trkpt>
      <trkpt lat="44.41694" lon="6.75568">
        <ele>1351.6</ele>
        <time>2021-06-25T16:17:39Z</time>
      </trkpt>
      <trkpt lat="44.41674" lon="6.75548">
        <ele>1341.6</ele>
        <time>2021-06-25T16:17:43Z</time>
      </trkpt>
      <trkpt lat="44.41666" lon="6.75516">
        <ele>1339.6</ele>
        <time>2021-06-25T16:17:47Z</time>
      </trkpt>
      <trkpt lat="44.41663" lon="6.75484">
        <ele>1338.9</ele>
        <time>2021-06-25T16:17:51Z</time>
      </trkpt>
      <trkpt lat="44.41662" lon="6.7546">
        <ele>1337.7</ele>
        <time>2021-06-25T16:17:55Z</time>
      </trkpt>
      <trkpt lat="44.41652" lon="6.75474">
        <ele>1333.3</ele>
        <time>2021-06-25T16:17:59Z</time>
      </trkpt>
      <trkpt lat="44.41647" lon="6.75497">
        <ele>1331.7</ele>
        <time>2021-06-25T16:18:03Z</time>
      </trkpt>
      <trkpt lat="44.41643" lon="6.75488">
        <ele>1329.5</ele>
        <time>2021-06-25T16:18:07Z</time>
      </trkpt>
      <trkpt lat="44.41641" lon="6.75458">
        <ele>1327.4</ele>
        <time>2021-06-25T16:18:11Z</time>
      </trkpt>
      <trkpt lat="44.41645" lon="6.75424">
        <ele>1328.1</ele>
        <time>2021-06-25T16:18:15Z</time>
      </trkpt>
      <trkpt lat="44.41645" lon="6.75387">
        <ele>1326.4</ele>
        <time>2021-06-25T16:18:19Z</time>
      </trkpt>
      <trkpt lat="44.41647" lon="6.75351">
        <ele>1325.7</ele>
        <time>2021-06-25T16:18:23Z</time>
      </trkpt>
      <trkpt lat="44.41646" lon="6.75332">
        <ele>1324.5</ele>
        <time>2021-06-25T16:18:27Z</time>
      </trkpt>
      <trkpt lat="44.41638" lon="6.75318">
        <ele>1321.6</ele>
        <time>2021-06-25T16:18:31Z</time>
      </trkpt>
      <trkpt lat="44.41631" lon="6.75307">
        <ele>1318.9</ele>
        <time>2021-06-25T16:18:35Z</time>
      </trkpt>
      <trkpt lat="44.41633" lon="6.753">
        <ele>1320.5</ele>
        <time>2021-06-25T16:18:39Z</time>
      </trkpt>
      <trkpt lat="44.41637" lon="6.75294">
        <ele>1323.1</ele>
        <time>2021-06-25T16:18:43Z</time>
      </trkpt>
      <trkpt lat="44.41638" lon="6.75285">
        <ele>1324.4</ele>
        <time>2021-06-25T16:18:47Z</time>
      </trkpt>
      <trkpt lat="44.41637" lon="6.75279">
        <ele>1324.4</ele>
        <time>2021-06-25T16:18:51Z</time>
      </trkpt>
      <trkpt lat="44.41634" lon="6.75274">
        <ele>1323.3</ele>
        <time>2021-06-25T16:18:55Z</time>
      </trkpt>
      <trkpt lat="44.41634" lon="6.75269">
        <ele>1323.7</ele>
        <time>2021-06-25T16:19:03Z</time>
      </trkpt>
      <trkpt lat="44.41636" lon="6.75263">
        <ele>1325.3</ele>
        <time>2021-06-25T16:19:11Z</time>
      </trkpt>
      <trkpt lat="44.41635" lon="6.75255">
        <ele>1325.5</ele>
        <time>2021-06-25T16:19:15Z</time>
      </trkpt>
      <trkpt lat="44.41633" lon="6.75245">
        <ele>1325.1</ele>
        <time>2021-06-25T16:19:19Z</time>
      </trkpt>
      <trkpt lat="44.41634" lon="6.7524">
        <ele>1325.8</ele>
        <time>2021-06-25T16:19:23Z</time>
      </trkpt>
      <trkpt lat="44.41632" lon="6.75237">
        <ele>1324.9</ele>
        <time>2021-06-25T16:19:27Z</time>
      </trkpt>
      <trkpt lat="44.41632" lon="6.75232">
        <ele>1325.1</ele>
        <time>2021-06-25T16:19:31Z</time>
      </trkpt>
      <trkpt lat="44.41632" lon="6.75225">
        <ele>1325.5</ele>
        <time>2021-06-25T16:19:35Z</time>
      </trkpt>
      <trkpt lat="44.41629" lon="6.75216">
        <ele>1324.2</ele>
        <time>2021-06-25T16:19:39Z</time>
      </trkpt>
      <trkpt lat="44.41626" lon="6.75211">
        <ele>1322.7</ele>
        <time>2021-06-25T16:19:43Z</time>
      </trkpt>
      <trkpt lat="44.41625" lon="6.75214">
        <ele>1322</ele>
        <time>2021-06-25T16:19:47Z</time>
      </trkpt>
      <trkpt lat="44.41624" lon="6.75212">
        <ele>1321.5</ele>
        <time>2021-06-25T16:19:55Z</time>
      </trkpt>
      <trkpt lat="44.41622" lon="6.75203">
        <ele>1320.8</ele>
        <time>2021-06-25T16:19:59Z</time>
      </trkpt>
      <trkpt lat="44.41622" lon="6.75198">
        <ele>1321</ele>
        <time>2021-06-25T16:20:03Z</time>
      </trkpt>
      <trkpt lat="44.41623" lon="6.75196">
        <ele>1321.6</ele>
        <time>2021-06-25T16:20:11Z</time>
      </trkpt>
      <trkpt lat="44.41621" lon="6.75193">
        <ele>1320.6</ele>
        <time>2021-06-25T16:20:15Z</time>
      </trkpt>
      <trkpt lat="44.4162" lon="6.75187">
        <ele>1320.2</ele>
        <time>2021-06-25T16:20:19Z</time>
      </trkpt>
      <trkpt lat="44.41621" lon="6.75179">
        <ele>1321.1</ele>
        <time>2021-06-25T16:20:23Z</time>
      </trkpt>
      <trkpt lat="44.41619" lon="6.75172">
        <ele>1320.2</ele>
        <time>2021-06-25T16:20:27Z</time>
      </trkpt>
      <trkpt lat="44.41617" lon="6.75166">
        <ele>1319.2</ele>
        <time>2021-06-25T16:20:31Z</time>
      </trkpt>
      <trkpt lat="44.41614" lon="6.7516">
        <ele>1317.2</ele>
        <time>2021-06-25T16:20:35Z</time>
      </trkpt>
      <trkpt lat="44.41611" lon="6.75153">
        <ele>1315.2</ele>
        <time>2021-06-25T16:20:39Z</time>
      </trkpt>
      <trkpt lat="44.41609" lon="6.75147">
        <ele>1313.8</ele>
        <time>2021-06-25T16:20:43Z</time>
      </trkpt>
      <trkpt lat="44.41609" lon="6.75146">
        <ele>1313.8</ele>
        <time>2021-06-25T16:20:47Z</time>
      </trkpt>
      <trkpt lat="44.41608" lon="6.75142">
        <ele>1313</ele>
        <time>2021-06-25T16:20:51Z</time>
      </trkpt>
      <trkpt lat="44.41605" lon="6.75137">
        <ele>1311.1</ele>
        <time>2021-06-25T16:20:55Z</time>
      </trkpt>
      <trkpt lat="44.41601" lon="6.75133">
        <ele>1308.6</ele>
        <time>2021-06-25T16:21:03Z</time>
      </trkpt>
      <trkpt lat="44.41601" lon="6.75128">
        <ele>1308.5</ele>
        <time>2021-06-25T16:21:15Z</time>
      </trkpt>
      <trkpt lat="44.416" lon="6.75124">
        <ele>1307.8</ele>
        <time>2021-06-25T16:21:19Z</time>
      </trkpt>
      <trkpt lat="44.41602" lon="6.7512">
        <ele>1308.8</ele>
        <time>2021-06-25T16:21:23Z</time>
      </trkpt>
      <trkpt lat="44.41602" lon="6.7511">
        <ele>1308.5</ele>
        <time>2021-06-25T16:21:27Z</time>
      </trkpt>
      <trkpt lat="44.41603" lon="6.75098">
        <ele>1308.8</ele>
        <time>2021-06-25T16:21:31Z</time>
      </trkpt>
      <trkpt lat="44.41597" lon="6.75078">
        <ele>1304.6</ele>
        <time>2021-06-25T16:21:35Z</time>
      </trkpt>
      <trkpt lat="44.41601" lon="6.75042">
        <ele>1304.8</ele>
        <time>2021-06-25T16:21:39Z</time>
      </trkpt>
      <trkpt lat="44.41612" lon="6.74999">
        <ele>1308.2</ele>
        <time>2021-06-25T16:21:43Z</time>
      </trkpt>
      <trkpt lat="44.41611" lon="6.74957">
        <ele>1308.6</ele>
        <time>2021-06-25T16:21:47Z</time>
      </trkpt>
      <trkpt lat="44.41611" lon="6.74914">
        <ele>1309.7</ele>
        <time>2021-06-25T16:21:51Z</time>
      </trkpt>
      <trkpt lat="44.416" lon="6.74871">
        <ele>1304.8</ele>
        <time>2021-06-25T16:21:55Z</time>
      </trkpt>
      <trkpt lat="44.41588" lon="6.74826">
        <ele>1298.6</ele>
        <time>2021-06-25T16:21:59Z</time>
      </trkpt>
      <trkpt lat="44.41583" lon="6.74802">
        <ele>1295.5</ele>
        <time>2021-06-25T16:22:03Z</time>
      </trkpt>
      <trkpt lat="44.4158" lon="6.7482">
        <ele>1294.6</ele>
        <time>2021-06-25T16:22:07Z</time>
      </trkpt>
      <trkpt lat="44.4158" lon="6.74856">
        <ele>1294.6</ele>
        <time>2021-06-25T16:22:11Z</time>
      </trkpt>
      <trkpt lat="44.41569" lon="6.74887">
        <ele>1290.6</ele>
        <time>2021-06-25T16:22:15Z</time>
      </trkpt>
      <trkpt lat="44.41551" lon="6.749">
        <ele>1284.8</ele>
        <time>2021-06-25T16:22:19Z</time>
      </trkpt>
      <trkpt lat="44.41535" lon="6.74924">
        <ele>1279.9</ele>
        <time>2021-06-25T16:22:23Z</time>
      </trkpt>
      <trkpt lat="44.41533" lon="6.74957">
        <ele>1279.2</ele>
        <time>2021-06-25T16:22:27Z</time>
      </trkpt>
      <trkpt lat="44.4153" lon="6.74985">
        <ele>1278.3</ele>
        <time>2021-06-25T16:22:31Z</time>
      </trkpt>
      <trkpt lat="44.41525" lon="6.75004">
        <ele>1277</ele>
        <time>2021-06-25T16:22:35Z</time>
      </trkpt>
      <trkpt lat="44.41517" lon="6.74995">
        <ele>1274.7</ele>
        <time>2021-06-25T16:22:39Z</time>
      </trkpt>
      <trkpt lat="44.41509" lon="6.74978">
        <ele>1272.3</ele>
        <time>2021-06-25T16:22:43Z</time>
      </trkpt>
      <trkpt lat="44.41498" lon="6.74955">
        <ele>1269.4</ele>
        <time>2021-06-25T16:22:47Z</time>
      </trkpt>
      <trkpt lat="44.41484" lon="6.74926">
        <ele>1268.5</ele>
        <time>2021-06-25T16:22:51Z</time>
      </trkpt>
      <trkpt lat="44.41469" lon="6.74891">
        <ele>1266.2</ele>
        <time>2021-06-25T16:22:55Z</time>
      </trkpt>
      <trkpt lat="44.41458" lon="6.74851">
        <ele>1263.4</ele>
        <time>2021-06-25T16:22:59Z</time>
      </trkpt>
      <trkpt lat="44.41464" lon="6.74804">
        <ele>1261.7</ele>
        <time>2021-06-25T16:23:03Z</time>
      </trkpt>
      <trkpt lat="44.41479" lon="6.7476">
        <ele>1260.5</ele>
        <time>2021-06-25T16:23:07Z</time>
      </trkpt>
      <trkpt lat="44.41487" lon="6.74713">
        <ele>1258.7</ele>
        <time>2021-06-25T16:23:11Z</time>
      </trkpt>
      <trkpt lat="44.41497" lon="6.74666">
        <ele>1256.9</ele>
        <time>2021-06-25T16:23:15Z</time>
      </trkpt>
      <trkpt lat="44.41512" lon="6.74622">
        <ele>1258.7</ele>
        <time>2021-06-25T16:23:19Z</time>
      </trkpt>
      <trkpt lat="44.41523" lon="6.74578">
        <ele>1258.4</ele>
        <time>2021-06-25T16:23:23Z</time>
      </trkpt>
      <trkpt lat="44.41525" lon="6.7453">
        <ele>1253.8</ele>
        <time>2021-06-25T16:23:27Z</time>
      </trkpt>
      <trkpt lat="44.41531" lon="6.74483">
        <ele>1249.8</ele>
        <time>2021-06-25T16:23:31Z</time>
      </trkpt>
      <trkpt lat="44.41545" lon="6.7444">
        <ele>1246.5</ele>
        <time>2021-06-25T16:23:35Z</time>
      </trkpt>
      <trkpt lat="44.41561" lon="6.74399">
        <ele>1243.6</ele>
        <time>2021-06-25T16:23:39Z</time>
      </trkpt>
      <trkpt lat="44.41576" lon="6.74359">
        <ele>1241.5</ele>
        <time>2021-06-25T16:23:43Z</time>
      </trkpt>
      <trkpt lat="44.416" lon="6.74328">
        <ele>1240.1</ele>
        <time>2021-06-25T16:23:47Z</time>
      </trkpt>
      <trkpt lat="44.4163" lon="6.74303">
        <ele>1239.7</ele>
        <time>2021-06-25T16:23:51Z</time>
      </trkpt>
      <trkpt lat="44.41656" lon="6.74271">
        <ele>1238.8</ele>
        <time>2021-06-25T16:23:55Z</time>
      </trkpt>
      <trkpt lat="44.41678" lon="6.74239">
        <ele>1238.3</ele>
        <time>2021-06-25T16:23:59Z</time>
      </trkpt>
      <trkpt lat="44.41703" lon="6.74207">
        <ele>1237.1</ele>
        <time>2021-06-25T16:24:03Z</time>
      </trkpt>
      <trkpt lat="44.41729" lon="6.74174">
        <ele>1234</ele>
        <time>2021-06-25T16:24:07Z</time>
      </trkpt>
      <trkpt lat="44.41761" lon="6.7415">
        <ele>1231.3</ele>
        <time>2021-06-25T16:24:11Z</time>
      </trkpt>
      <trkpt lat="44.41794" lon="6.74128">
        <ele>1228.8</ele>
        <time>2021-06-25T16:24:15Z</time>
      </trkpt>
      <trkpt lat="44.41825" lon="6.74102">
        <ele>1225.4</ele>
        <time>2021-06-25T16:24:19Z</time>
      </trkpt>
      <trkpt lat="44.41854" lon="6.74072">
        <ele>1223</ele>
        <time>2021-06-25T16:24:23Z</time>
      </trkpt>
      <trkpt lat="44.41886" lon="6.74048">
        <ele>1222.8</ele>
        <time>2021-06-25T16:24:27Z</time>
      </trkpt>
      <trkpt lat="44.41917" lon="6.74027">
        <ele>1222.7</ele>
        <time>2021-06-25T16:24:31Z</time>
      </trkpt>
      <trkpt lat="44.41947" lon="6.74006">
        <ele>1222.8</ele>
        <time>2021-06-25T16:24:35Z</time>
      </trkpt>
      <trkpt lat="44.41972" lon="6.73981">
        <ele>1222.9</ele>
        <time>2021-06-25T16:24:39Z</time>
      </trkpt>
      <trkpt lat="44.41993" lon="6.7395">
        <ele>1222.6</ele>
        <time>2021-06-25T16:24:43Z</time>
      </trkpt>
      <trkpt lat="44.42004" lon="6.73916">
        <ele>1222</ele>
        <time>2021-06-25T16:24:47Z</time>
      </trkpt>
      <trkpt lat="44.42008" lon="6.73887">
        <ele>1221.1</ele>
        <time>2021-06-25T16:24:51Z</time>
      </trkpt>
      <trkpt lat="44.42011" lon="6.73865">
        <ele>1220.4</ele>
        <time>2021-06-25T16:24:55Z</time>
      </trkpt>
    </trkseg>
  </trk>
</gpx>